Latest News: CDIP is now hiring. Job description

User Preferences

Timezone
Units
Lat/Lon format
Defaults

Geo and time bounds

248 - ANGELES POINT, WA   Notice:02/10/2024 Cleaned sensor,Kelp removed from buoy. Mobile View
1151 records
Date
(UTC)
Hs
(ft)
Tp
(s)
Dp
(deg)
Ta
(s)
SST
(F)
Air temp
(F)
Current sp
(kt)
Current dir
(deg)
2024-05-24 23:00 48.7 48.6 1.26 34.0
2024-05-24 22:30 0.79 5.71 302 4.26 49.5 48.6 0.97 26.0
2024-05-24 22:00 0.89 7.14 296 4.77 50.0 48.4 0.23 69.0
2024-05-24 21:30 0.95 6.25 291 5.31 49.5 48.2 1.07 162.0
2024-05-24 21:00 0.85 7.69 284 5.54 48.7 48.0 0.68 156.0
2024-05-24 20:30 0.69 7.69 284 5.28 49.1 47.7 0.95 57.0
2024-05-24 20:00 0.66 6.90 285 4.34 48.6 47.5 0.45 82.0
2024-05-24 19:30 0.66 7.14 286 4.73 48.4 47.1 0.12 163.0
2024-05-24 19:00 0.66 8.33 287 5.28 48.6 0.43 275.0
2024-05-24 18:30 0.59 8.33 282 5.14 48.4 45.7 0.82 224.0
2024-05-24 18:00 0.52 8.00 275 5.18 48.2 46.2 1.05 234.0
2024-05-24 17:30 0.52 8.00 265 4.65 48.4 46.2 1.22 231.0
2024-05-24 17:00 0.56 7.69 271 4.62 48.2 46.2 1.17 233.0
2024-05-24 16:30 0.82 8.00 279 5.28 47.5 46.4 1.89 248.0
2024-05-24 16:00 0.79 4.88 265 4.64 47.8 46.4 2.97 247.0
2024-05-24 15:30 0.92 4.26 275 4.49 48.7 46.8 2.60 249.0
2024-05-24 15:00 0.89 4.35 279 4.41 48.6 46.6 1.98 259.0
2024-05-24 14:30 0.89 4.00 286 4.18 48.9 47.8 1.24 268.0
2024-05-24 14:00 0.92 3.92 295 4.16 48.7 1.50 252.0
2024-05-24 13:30 1.05 3.64 302 3.99 48.7 1.40 267.0
2024-05-24 13:00 1.12 8.00 298 4.23 49.1 1.30 271.0
2024-05-24 12:30 0.92 3.70 290 3.66 49.3 48.2 0.87 269.0
2024-05-24 12:00 0.82 3.57 288 3.29 49.1 48.2 0.52 211.0
2024-05-24 11:30 0.92 3.28 301 3.13 49.1 48.6 0.10 178.0
2024-05-24 11:00 1.08 3.45 296 3.14 49.1 49.3 0.23 109.0
2024-05-24 10:30 1.08 3.45 301 3.05 49.1 49.3 0.39 80.0
2024-05-24 10:00 1.18 3.45 296 3.03 49.1 49.1 0.49 91.0
2024-05-24 09:30 1.31 3.33 307 3.03 49.1 49.3 0.21 59.0
2024-05-24 09:00 1.28 3.64 297 2.86 49.1 49.3 0.41 114.0
2024-05-24 08:30 1.35 3.64 297 2.99 48.9 49.5 0.33 137.0
2024-05-24 08:00 1.28 3.77 301 3.04 48.9 49.5 0.78 106.0
2024-05-24 07:30 1.41 4.08 295 3.02 48.9 49.6 0.80 87.0
2024-05-24 07:00 1.84 4.44 295 3.36 48.7 49.8 0.68 82.0
2024-05-24 06:30 1.94 4.65 287 3.45 48.6 50.0 0.37 60.0
2024-05-24 06:00 2.07 4.35 310 3.53 48.6 50.2 0.39 40.0
2024-05-24 05:30 2.36 4.76 298 3.83 48.6 50.4 0.72 352.0
2024-05-24 05:00 2.53 4.76 299 3.98 49.1 50.5 0.51 299.0
2024-05-24 04:30 2.40 4.88 287 4.06 49.3 50.5 0.89 236.0
2024-05-24 04:00 2.85 4.65 293 4.08 48.9 50.5 0.66 225.0
2024-05-24 03:30 2.59 5.00 280 3.62 49.3 50.7 0.29 97.0
2024-05-24 03:00 2.76 4.17 293 3.50 49.5 50.9 0.68 127.0
2024-05-24 02:30 2.59 4.65 290 3.42 49.3 51.3 1.05 95.0
2024-05-24 02:00 2.59 4.17 287 3.44 48.9 51.3 1.69 105.0
2024-05-24 01:30 1.97 7.69 296 3.37 49.5 51.6 2.12 105.0
2024-05-24 01:00 1.57 6.90 284 4.19 49.5 52.0 2.72 95.0
2024-05-24 00:30 1.05 6.45 288 4.29 49.6 51.8 2.64 97.0
2024-05-24 00:00 0.95 8.33 296 4.21 49.5 52.0 2.35 93.0
2024-05-23 23:30 1.35 6.06 300 4.04 49.6 51.8 1.30 81.0
2024-05-23 23:00 1.41 6.25 310 3.69 50.4 51.8 1.21 59.0
2024-05-23 22:30 1.94 5.71 303 3.89 50.5 52.0 0.97 35.0
2024-05-23 22:00 2.79 6.06 294 4.67 51.3 52.0 0.58 30.0
2024-05-23 21:30 3.38 5.88 297 5.11 51.3 52.2 0.08 5.0
2024-05-23 21:00 3.71 6.06 289 5.59 50.9 52.2 0.43 203.0
2024-05-23 20:30 3.67 7.41 270 6.11 50.9 51.4 1.21 192.0
2024-05-23 20:00 2.72 7.14 276 6.41 48.6 50.9 1.26 122.0
2024-05-23 19:30 1.87 7.41 284 5.60 49.5 51.1 0.54 61.0
2024-05-23 19:00 2.17 7.14 277 5.61 49.6 50.7 0.12 211.0
2024-05-23 18:30 2.26 7.14 275 6.09 48.9 50.9 0.56 273.0
2024-05-23 18:00 2.23 7.69 277 6.24 48.6 50.5 0.97 224.0
2024-05-23 17:30 1.94 8.33 281 6.08 48.4 50.0 1.26 228.0
2024-05-23 17:00 2.17 8.70 285 6.50 48.4 50.2 1.56 234.0
2024-05-23 16:30 2.07 5.56 269 6.10 48.7 50.0 1.71 233.0
2024-05-23 16:00 2.30 5.56 264 6.08 48.9 49.6 2.57 247.0
2024-05-23 15:30 2.66 5.71 260 6.28 49.5 49.1 3.58 241.0
2024-05-23 15:00 3.02 5.88 262 6.50 49.5 48.6 3.07 246.0
2024-05-23 14:30 3.02 8.70 285 6.31 48.6 48.7 2.51 252.0
2024-05-23 14:00 3.08 5.41 296 5.42 49.1 47.7 1.26 258.0
2024-05-23 13:30 3.22 8.00 304 5.54 49.1 47.8 1.21 267.0
2024-05-23 13:00 3.48 5.26 298 5.67 49.1 48.0 1.63 269.0
2024-05-23 12:30 3.51 9.09 307 5.48 49.5 48.7 1.69 260.0
2024-05-23 12:00 2.85 9.09 299 4.95 49.5 48.9 1.38 237.0
2024-05-23 11:30 2.33 4.08 300 4.25 49.5 48.9 0.66 241.0
2024-05-23 11:00 2.23 8.33 288 3.97 49.5 49.1 0.39 267.0
2024-05-23 10:30 2.40 8.33 288 4.33 49.6 49.3 0.43 255.0
2024-05-23 10:00 2.17 9.09 293 4.24 49.5 49.5 0.41 251.0
2024-05-23 09:30 2.59 8.00 284 4.97 49.5 49.5 0.43 267.0
2024-05-23 09:00 2.79 9.09 295 5.29 49.6 49.5 0.45 263.0
2024-05-23 08:30 2.56 9.09 294 5.27 49.6 49.3 0.33 276.0
2024-05-23 08:00 2.13 9.09 292 4.64 49.6 49.6 0.39 260.0
2024-05-23 07:30 2.07 9.09 294 5.01 49.8 49.8 0.49 243.0
2024-05-23 07:00 1.71 8.70 286 4.67 49.5 50.2 0.27 154.0
2024-05-23 06:30 2.13 8.00 298 4.89 49.5 50.5 0.37 73.0
2024-05-23 06:00 2.10 9.09 302 4.67 49.6 50.9 0.29 21.0
2024-05-23 05:30 2.17 9.52 305 4.65 49.8 50.9 0.52 343.0
2024-05-23 05:00 2.13 9.52 302 5.06 49.5 50.5 0.43 312.0
2024-05-23 04:30 1.87 9.52 297 4.14 49.5 51.4 0.35 308.0
2024-05-23 04:00 2.00 10.00 294 4.50 49.6 51.4 0.68 273.0
2024-05-23 03:30 2.40 8.00 294 5.50 49.6 52.2 0.66 257.0
2024-05-23 03:00 2.40 8.00 285 5.38 49.5 53.1 0.45 198.0
2024-05-23 02:30 2.72 10.00 295 6.35 50.4 54.0 0.29 156.0
2024-05-23 02:00 2.89 10.00 296 6.80 50.4 53.8 0.33 148.0
2024-05-23 01:30 3.48 9.52 297 7.59 50.4 53.4 0.86 101.0
2024-05-23 01:00 3.38 9.09 297 7.42 50.0 53.4 0.87 98.0
2024-05-23 00:30 4.59 9.09 285 7.99 50.4 53.6 1.83 108.0
2024-05-23 00:00 4.69 9.09 282 8.11 50.7 52.7 2.29 110.0
2024-05-22 23:30 4.36 9.09 291 8.05 50.0 52.5 1.17 76.0
2024-05-22 23:00 4.10 8.70 296 7.37 50.9 52.2 1.11 44.0
2024-05-22 22:30 4.49 8.70 294 7.19 50.9 52.0 0.99 29.0
2024-05-22 22:00 6.59 8.70 291 7.27 51.8 51.6 0.72 28.0
2024-05-22 21:30 7.35 8.70 287 7.40 51.3 51.1 0.49 28.0
2024-05-22 21:00 7.61 8.00 289 7.45 51.6 51.6 0.08 241.0
2024-05-22 20:30 7.64 8.33 290 7.31 51.8 52.0 0.66 232.0
2024-05-22 20:00 8.17 9.09 281 7.57 51.4 52.0 1.19 193.0
2024-05-22 19:30 6.76 9.09 273 7.77 50.4 52.2 1.28 138.0
2024-05-22 19:00 5.05 8.70 278 7.91 50.2 52.0 0.47 102.0
2024-05-22 18:30 4.63 8.70 280 7.58 49.8 51.4 0.04 150.0
2024-05-22 18:00 4.82 9.52 280 7.92 50.2 51.3 0.56 241.0
2024-05-22 17:30 5.09 9.52 277 8.09 49.5 0.60 266.0
2024-05-22 17:00 4.92 10.00 270 8.36 49.1 50.0 1.30 264.0
2024-05-22 16:30 4.07 9.52 276 8.04 49.1 49.1 2.00 256.0
2024-05-22 16:00 4.49 10.00 273 8.48 48.9 2.18 246.0
2024-05-22 15:30 4.69 10.00 274 8.18 49.8 3.27 246.0
2024-05-22 15:00 5.18 10.53 291 8.53 49.8 3.60 247.0
2024-05-22 14:30 5.87 10.53 288 8.88 49.3 3.19 254.0
2024-05-22 14:00 5.25 10.53 291 8.49 49.6 2.51 258.0
2024-05-22 13:30 6.27 10.53 295 8.55 49.5 1.75 270.0
2024-05-22 13:00 7.35 10.53 302 8.69 49.3 1.21 280.0
2024-05-22 12:30 8.37 10.00 299 8.45 48.9 1.50 263.0
2024-05-22 12:00 9.78 10.00 299 8.66 49.1 49.3 1.28 256.0
2024-05-22 11:30 8.69 10.53 292 8.16 48.9 48.9 0.76 266.0
2024-05-22 11:00 7.28 10.00 287 7.73 49.1 48.7 0.17 237.0
2024-05-22 10:30 6.40 10.00 287 7.42 49.1 50.4 0.25 193.0
2024-05-22 10:00 4.46 10.00 291 6.10 49.1 50.4 0.06 61.0
2024-05-22 09:30 3.35 9.52 291 4.65 49.1 50.4 0.14 40.0
2024-05-22 09:00 3.12 7.69 296 4.20 49.1 50.5 0.29 32.0
2024-05-22 08:30 3.05 7.41 291 4.18 49.1 51.1 0.27 264.0
2024-05-22 08:00 3.05 4.35 297 3.92 49.1 50.7 0.17 294.0
2024-05-22 07:30 3.54 4.44 293 4.06 49.1 50.2 0.35 271.0
2024-05-22 07:00 3.74 4.76 295 4.18 49.3 49.8 0.04 202.0
2024-05-22 06:30 4.10 5.26 291 4.36 49.5 50.7 0.21 271.0
2024-05-22 06:00 4.04 5.26 295 4.23 49.3 49.6 0.21 226.0
2024-05-22 05:30 3.87 4.44 294 3.84 49.1 49.6 0.39 238.0
2024-05-22 05:00 3.87 4.55 293 3.81 49.1 50.0 0.41 58.0
2024-05-22 04:30 3.67 4.55 297 3.80 49.1 50.4 0.12 42.0
2024-05-22 04:00 3.67 4.76 300 3.94 49.3 50.9 0.10 328.0
2024-05-22 03:30 3.35 4.65 290 4.07 49.5 51.1 0.47 238.0
2024-05-22 03:00 3.05 4.55 288 3.92 49.6 50.7 0.49 191.0
2024-05-22 02:30 2.85 4.26 279 3.55 49.6 50.2 0.27 142.0
2024-05-22 02:00 2.59 4.17 289 3.50 49.6 50.5 0.21 118.0
2024-05-22 01:30 2.36 3.45 313 3.59 49.6 50.7 0.33 353.0
2024-05-22 01:00 1.94 7.69 278 4.94 49.8 50.2 0.41 223.0
2024-05-22 00:30 1.57 6.06 278 5.51
2024-05-22 00:00 1.67 6.25 274 5.90 50.0 1.30 88.0
2024-05-21 23:30 1.71 6.90 279 5.80 50.4 1.71 103.0
2024-05-21 23:00 1.67 6.25 283 6.06 49.5 49.1 2.24 103.0
2024-05-21 22:30 1.51 6.67 293 5.31 50.0 48.9 1.07 70.0
2024-05-21 22:00 1.21 6.45 293 4.92 50.0 48.9 0.93 37.0
2024-05-21 21:30 1.64 6.90 294 5.10 50.2 48.9 0.82 23.0
2024-05-21 21:00 2.03 6.67 299 5.56 50.7 48.6 0.64 359.0
2024-05-21 20:30 2.13 5.56 294 5.46 50.5 48.2 0.47 325.0
2024-05-21 20:00 1.84 5.00 300 5.37 50.4 48.4 0.62 253.0
2024-05-21 19:30 1.87 5.88 282 5.47 50.5 48.2 1.34 220.0
2024-05-21 19:00 1.67 5.71 277 5.63 50.0 48.4 1.61 200.0
2024-05-21 18:30 1.21 7.14 272 5.51 50.2 48.2 0.33 115.0
2024-05-21 18:00 1.41 6.90 280 4.27 50.0 48.6 0.02 280.0
2024-05-21 17:30 1.48 6.67 274 5.24 50.0 48.4 0.41 264.0
2024-05-21 17:00 1.21 6.67 269 5.66 50.0 0.58 246.0
2024-05-21 16:30 1.12 6.90 270 5.82 49.8 48.4 0.93 270.0
2024-05-21 16:00 1.21 11.76 299 6.24 49.6 48.4 1.59 274.0
2024-05-21 15:30 1.28 11.76 296 5.98 50.0 48.2 2.88 254.0
2024-05-21 15:00 1.28 10.00 288 5.98 50.4 48.4 3.07 252.0
2024-05-21 14:30 1.35 7.41 277 5.79 50.4 48.2 2.84 256.0
2024-05-21 14:00 1.31 8.33 283 4.96 49.8 47.7 1.63 259.0
2024-05-21 13:30 1.41 8.33 295 4.31 49.6 47.5 0.72 279.0
2024-05-21 13:00 1.61 6.25 290 4.51 49.6 47.5 1.24 287.0
2024-05-21 12:30 1.77 6.06 293 4.70 49.6 47.5 1.24 286.0
2024-05-21 12:00 1.87 8.33 289 5.03 49.5 47.5 0.95 277.0
2024-05-21 11:30 1.94 4.17 294 4.60 49.6 47.7 1.01 278.0
2024-05-21 11:00 2.23 3.85 292 4.46 49.6 0.56 274.0
2024-05-21 10:30 2.33 6.06 290 4.14 49.8 49.3 0.17 277.0
2024-05-21 10:00 2.10 3.51 298 3.77 49.6 49.5 0.12 152.0
2024-05-21 09:30 2.20 8.00 293 3.73 49.6 49.8 0.35 134.0
2024-05-21 09:00 2.13 5.71 285 3.55 49.8 50.4 0.31 52.0
2024-05-21 08:30 2.33 5.71 285 3.63 49.8 50.7 0.37 29.0
2024-05-21 08:00 2.43 3.51 293 3.85 49.5 50.2 0.23 17.0
2024-05-21 07:30 2.59 3.77 293 3.85 49.6 49.8 0.29 258.0
2024-05-21 07:00 2.95 3.92 288 4.00 49.8 50.2 0.25 244.0
2024-05-21 06:30 2.95 4.44 285 3.87 49.6 50.5 0.31 220.0
2024-05-21 06:00 3.28 4.55 283 4.01 49.8 50.9 0.33 280.0
2024-05-21 05:30 3.87 5.00 290 4.21 49.8 51.1 0.58 284.0
2024-05-21 05:00 4.10 4.76 292 4.38 49.8 50.5 0.74 256.0
2024-05-21 04:30 3.97 5.00 290 4.32 50.0 50.4 1.22 230.0
2024-05-21 04:00 4.10 5.41 289 4.21 50.0 50.2 0.35 186.0
2024-05-21 03:30 5.12 5.13 291 4.40 50.2 50.2 0.29 168.0
2024-05-21 03:00 5.31 5.26 287 4.63 50.4 49.8 0.54 228.0
2024-05-21 02:30 5.15 5.41 283 4.58 49.5 50.2 0.37 314.0
2024-05-21 02:00 5.05 5.26 279 4.53 49.8 50.5 0.35 277.0
2024-05-21 01:30 4.40 5.00 274 4.30 50.0 50.5 0.54 78.0
2024-05-21 01:00 4.46 4.88 288 4.23 49.6 50.5 0.52 82.0
2024-05-21 00:30 4.59 5.00 278 4.49 49.6 50.7 0.49 56.0
2024-05-21 00:00 4.23 8.00 285 4.63 49.6 50.7 1.03 90.0
2024-05-20 23:30 3.87 8.00 285 4.64 49.8 50.9 1.07 75.0
2024-05-20 23:00 3.02 7.69 286 4.48 50.9 51.1 0.72 91.0
2024-05-20 22:30 2.72 8.00 295 4.05 50.5 50.9 0.78 68.0
2024-05-20 22:00 3.12 7.41 292 4.35 50.9 50.9 0.78 58.0
2024-05-20 21:30 3.54 7.41 298 4.69 50.9 50.9 0.72 56.0
2024-05-20 21:00 4.07 7.14 297 5.49 51.1 50.9 0.66 55.0
2024-05-20 20:30 4.49 7.14 294 5.75 51.3 50.9 0.35 52.0
2024-05-20 20:00 3.87 6.90 297 5.74 51.1 50.7 0.08 279.0
2024-05-20 19:30 3.87 7.41 288 5.94 50.9 50.2 0.33 241.0
2024-05-20 19:00 4.13 7.69 288 6.43 50.5 49.8 0.62 190.0
2024-05-20 18:30 3.28 8.33 287 6.64 50.2 50.4 0.39 157.0
2024-05-20 18:00 2.89 7.14 278 6.63 50.4 49.1 0.29 199.0
2024-05-20 17:30 2.53 8.33 284 6.68 50.2 48.7 0.41 244.0
2024-05-20 17:00 2.82 8.70 279 7.04 50.0 48.6 0.33 234.0
2024-05-20 16:30 3.02 8.70 274 7.41 49.5 48.7 0.91 260.0
2024-05-20 16:00 2.79 8.00 273 7.10 49.5 48.7 1.83 262.0
2024-05-20 15:30 3.08 7.69 268 6.92 49.8 48.6 2.90 253.0
2024-05-20 15:00 3.15 8.70 286 7.26 50.2 48.7 3.13 253.0
2024-05-20 14:30 3.97 8.70 282 7.69 50.2 48.6 3.09 254.0
2024-05-20 14:00 3.51 8.70 289 7.52 50.2 48.0 2.86 255.0
2024-05-20 13:30 4.07 8.00 289 7.40 49.6 48.2 2.20 263.0
2024-05-20 13:00 3.41 8.33 298 6.66 49.6 46.6 1.24 260.0
2024-05-20 12:30 3.64 8.33 296 6.66 50.0 46.2 1.21 285.0
2024-05-20 12:00 3.48 8.33 305 6.21 50.4 48.4 1.30 286.0
2024-05-20 11:30 2.95 7.69 310 5.46 50.7 48.4 1.48 273.0
2024-05-20 11:00 2.85 7.41 305 5.29 50.2 48.2 1.36 265.0
2024-05-20 10:30 2.62 7.14 296 4.80 49.8 48.6 0.56 260.0
2024-05-20 10:00 2.36 7.14 293 4.29 49.8 48.6 0.29 227.0
2024-05-20 09:30 2.53 6.67 289 4.39 49.8 48.6 0.21 315.0
2024-05-20 09:00 2.56 7.14 291 4.61 49.8 48.6 0.12 246.0
2024-05-20 08:30 2.40 6.90 292 4.27 49.8 49.1 0.06 77.0
2024-05-20 08:00 2.20 6.67 297 3.87 49.8 49.5 0.25 74.0
2024-05-20 07:30 2.40 7.14 299 4.02 49.8 49.8 0.21 37.0
2024-05-20 07:00 2.49 3.77 301 3.99 49.8 49.1 0.29 286.0
2024-05-20 06:30 3.18 7.69 293 4.67 50.0 51.4 0.37 260.0
2024-05-20 06:00 3.35 4.35 298 4.59 50.0 51.4 0.35 246.0
2024-05-20 05:30 3.35 7.69 292 4.54 49.8 51.3 0.31 251.0
2024-05-20 05:00 3.54 5.00 290 4.37 49.8 50.5 0.37 177.0
2024-05-20 04:30 3.58 4.76 300 4.28 49.8 50.9 0.27 168.0
2024-05-20 04:00 3.41 5.13 287 4.57 49.8 50.4 0.41 125.0
2024-05-20 03:30 3.71 5.00 298 4.34 50.0 50.7 0.33 14.0
2024-05-20 03:00 4.20 5.26 295 4.68 50.0 50.7 0.23 18.0
2024-05-20 02:30 4.40 5.26 298 4.67 50.2 51.1 0.25 283.0
2024-05-20 02:00 3.84 5.26 298 4.75 50.4 50.9 0.60 325.0
2024-05-20 01:30 3.51 7.69 297 4.81 50.5 50.9 0.97 322.0
2024-05-20 01:00 2.85 8.00 291 4.67 51.1 51.6 0.37 214.0
2024-05-20 00:30 2.72 7.69 285 4.95 50.4 51.8 0.14 247.0
2024-05-20 00:00 2.17 7.69 291 4.71 50.5 51.4 0.23 226.0
2024-05-19 23:30 2.40 7.41 292 5.26 50.9 51.4 0.45 220.0
2024-05-19 23:00 1.77 7.69 294 4.80 49.8 51.3 0.25 63.0
2024-05-19 22:30 1.84 7.41 302 5.04 52.0 51.4 0.23 49.0
2024-05-19 22:00 2.23 7.41 298 5.63 53.2 52.9 0.41 63.0
2024-05-19 21:30 2.03 6.90 292 5.32 54.3 53.1 0.70 79.0
2024-05-19 21:00 2.26 6.25 300 5.29 53.8 52.3 0.27 30.0
2024-05-19 20:30 2.53 7.14 299 5.51 52.3 52.2 0.10 112.0
2024-05-19 20:00 2.26 7.14 299 5.19 51.6 52.2 0.12 161.0
2024-05-19 19:30 2.43 6.90 287 5.53 50.9 52.0 0.25 119.0
2024-05-19 19:00 2.20 6.90 299 5.56 50.9 51.1 0.51 130.0
2024-05-19 18:30 1.94 6.67 289 5.55 51.1 50.9 0.33 179.0
2024-05-19 18:00 1.90 6.45 281 5.51 50.5 50.2 0.51 209.0
2024-05-19 17:30 1.84 6.45 281 5.22 50.4 49.8 0.23 299.0
2024-05-19 17:00 1.80 6.45 283 5.07 50.4 49.6 0.51 227.0
2024-05-19 16:30 1.77 6.45 284 5.55 50.2 49.5 0.87 244.0
2024-05-19 16:00 1.51 7.14 272 5.15 49.6 49.1 0.35 291.0
2024-05-19 15:30 1.54 7.41 272 5.67 49.6 49.3 1.34 257.0
2024-05-19 15:00 1.54 7.69 279 5.78 49.8 49.5 2.31 252.0
2024-05-19 14:30 1.08 6.45 301 5.04 49.6 48.9 0.60 245.0
2024-05-19 14:00 1.15 6.90 286 4.56 49.6 48.7 0.62 241.0
2024-05-19 13:30 1.31 6.67 289 4.31 49.5 47.7 0.87 257.0
2024-05-19 13:00 1.51 6.90 292 4.26 49.5 47.5 1.11 285.0
2024-05-19 12:30 1.51 6.67 288 4.17 49.6 49.1 1.30 286.0
2024-05-19 12:00 1.48 6.67 281 3.79 49.5 49.5 1.28 285.0
2024-05-19 11:30 1.44 6.45 286 4.00 49.8 48.7 0.93 295.0
2024-05-19 11:00 1.64 6.67 285 4.17 49.8 49.3 0.86 251.0
2024-05-19 10:30 1.84 6.67 289 3.88 49.6 48.9 0.70 227.0
2024-05-19 10:00 2.23 3.17 290 3.52 49.6 48.9 0.47 202.0
2024-05-19 09:30 2.46 6.06 293 3.64 49.6 49.1 0.39 179.0
2024-05-19 09:00 2.07 6.25 294 3.20 49.6 49.3 0.68 144.0
2024-05-19 08:30 2.07 6.06 300 3.47 49.6 49.3 0.87 119.0
2024-05-19 08:00 2.10 6.06 295 3.64 49.6 49.8 1.01 105.0
2024-05-19 07:30 2.36 6.25 294 3.71 49.6 49.3 1.03 94.0
2024-05-19 07:00 2.26 6.45 296 3.44 49.6 48.9 1.21 93.0
2024-05-19 06:30 2.00 6.45 293 3.31 49.6 49.1 1.05 79.0
2024-05-19 06:00 2.10 4.08 304 3.46 49.8 49.5 0.82 76.0
2024-05-19 05:30 2.26 4.35 293 3.53 50.0 50.0 0.17 50.0
2024-05-19 05:00 2.76 4.44 294 3.86 50.0 50.0 0.08 93.0
2024-05-19 04:30 3.12 4.55 281 3.95 50.0 49.3 0.19 225.0
2024-05-19 04:00 3.48 5.00 288 4.15 50.0 49.5 0.17 249.0
2024-05-19 03:30 3.81 4.88 290 4.19 50.0 49.8 0.14 247.0
2024-05-19 03:00 3.77 5.00 284 4.11 50.0 50.2 0.27 229.0
2024-05-19 02:30 3.54 5.13 283 4.16 50.0 50.2 0.31 93.0
2024-05-19 02:00 3.74 4.88 292 4.26 50.0 50.4 0.06 310.0
2024-05-19 01:30 4.07 5.13 288 4.36 50.0 50.7 0.25 251.0
2024-05-19 01:00 3.71 5.26 290 4.27 50.0 50.7 0.62 246.0
2024-05-19 00:30 3.71 4.65 297 4.38 49.8 49.5 0.86 264.0
2024-05-19 00:00 3.94 5.26 294 4.43 49.8 49.6 1.03 254.0
2024-05-18 23:30 3.48 4.55 292 4.26 49.8 50.2 0.89 242.0
2024-05-18 23:00 3.44 4.65 299 4.00 50.0 50.0 0.54 197.0
2024-05-18 22:30 2.59 4.26 303 3.47 50.2 0.35 181.0
2024-05-18 22:00 2.33 3.77 299 3.35 50.0 47.7 0.23 202.0
2024-05-18 21:30 2.59 3.70 298 3.43 50.0 49.5 0.33 188.0
2024-05-18 21:00 2.82 3.77 302 3.65 50.0 49.3 0.17 130.0
2024-05-18 20:30 2.82 3.70 306 3.50 49.8 0.25 143.0
2024-05-18 20:00 2.82 6.25 290 3.61 49.8 49.3 0.33 95.0
2024-05-18 19:30 2.79 6.25 290 3.60 49.8 0.31 108.0
2024-05-18 19:00 2.79 6.67 287 3.75 50.0 47.5 0.51 128.0
2024-05-18 18:30 2.79 6.90 280 4.11 50.0 49.3 0.60 133.0
2024-05-18 18:00 2.66 6.45 284 4.35 50.0 50.0 0.93 125.0
2024-05-18 17:30 2.69 6.67 283 4.23 50.0 49.6 0.64 102.0
2024-05-18 17:00 2.53 6.90 279 4.25 49.8 49.1 0.47 89.0
2024-05-18 16:30 2.33 7.14 287 4.73 49.8 50.4 0.37 184.0
2024-05-18 16:00 2.10 7.41 272 4.91 49.8 49.6 0.70 215.0
2024-05-18 15:30 1.90 7.41 272 4.14 49.6 50.0 0.29 203.0
2024-05-18 15:00 1.94 7.69 275 4.19 49.5 49.3 0.51 221.0
2024-05-18 14:30 2.03 8.00 281 4.87 49.6 49.3 0.62 234.0
2024-05-18 14:00 2.07 8.00 281 4.67 49.6 49.3 0.62 255.0
2024-05-18 13:30 2.00 8.00 279 4.62 49.8 49.3 0.99 239.0
2024-05-18 13:00 2.03 7.41 285 4.30 49.8 49.1 0.80 289.0
2024-05-18 12:30 2.30 8.70 292 4.56 49.8 49.5 1.01 286.0
2024-05-18 12:00 2.46 8.00 296 5.01 49.8 49.6 1.21 285.0
2024-05-18 11:30 2.46 8.00 285 4.66 49.6 49.5 0.87 280.0
2024-05-18 11:00 2.72 8.00 287 4.81 49.6 49.5 0.78 280.0
2024-05-18 10:30 2.72 7.14 284 4.66 49.5 49.5 0.72 265.0
2024-05-18 10:00 2.85 6.90 284 4.78 49.5 50.0 0.45 247.0
2024-05-18 09:30 3.12 7.69 286 4.63 49.5 50.4 0.23 235.0
2024-05-18 09:00 3.18 7.14 288 4.47 49.5 50.2 0.19 219.0
2024-05-18 08:30 3.51 7.14 287 4.56 49.6 49.6 0.39 161.0
2024-05-18 08:00 3.77 6.90 284 4.27 49.6 49.3 0.54 153.0
2024-05-18 07:30 3.77 6.90 287 4.19 49.6 49.8 0.68 127.0
2024-05-18 07:00 4.10 7.41 291 4.22 49.8 49.1 0.87 115.0
2024-05-18 06:30 4.17 7.41 290 4.40 49.8 48.7 1.01 112.0
2024-05-18 06:00 3.90 6.67 283 4.21 50.0 49.6 0.87 112.0
2024-05-18 05:30 4.10 8.00 287 4.38 50.0 49.5 0.76 108.0
2024-05-18 05:00 3.97 8.00 287 4.15 50.0 49.3 0.70 95.0
2024-05-18 04:30 3.97 8.00 281 4.35 50.0 49.5 0.39 104.0
2024-05-18 04:00 4.00 4.08 294 4.26 50.0 49.6 0.19 121.0
2024-05-18 03:30 4.33 4.35 293 4.52 50.2 49.6 0.37 200.0
2024-05-18 03:00 4.23 4.44 295 4.53 50.2 49.6 0.39 231.0
2024-05-18 02:30 4.27 4.88 289 4.55 50.2 49.8 0.56 237.0
2024-05-18 02:00 4.43 4.76 296 4.69 50.2 50.4 0.82 248.0
2024-05-18 01:30 4.49 8.33 279 4.88 50.2 50.2 0.80 250.0
2024-05-18 01:00 4.46 8.33 280 4.77 50.0 50.5 1.03 236.0
2024-05-18 00:30 4.36 4.44 289 4.64 50.0 50.4 0.54 268.0
2024-05-18 00:00 3.90 8.33 272 4.55 49.8 50.5 0.51 264.0
2024-05-17 23:30 3.81 8.70 280 4.62 50.2 50.7 0.87 271.0
2024-05-17 23:00 3.64 8.33 286 4.86 50.0 50.2 1.19 260.0
2024-05-17 22:30 3.61 8.00 284 4.63 50.0 50.5 1.01 255.0
2024-05-17 22:00 3.97 8.70 287 5.07 50.0 50.4 0.87 234.0
2024-05-17 21:30 4.40 8.33 289 5.18 50.0 50.2 0.70 218.0
2024-05-17 21:00 4.30 8.70 289 4.96 49.6 50.0 0.47 217.0
2024-05-17 20:30 4.89 8.70 284 5.46 49.5 50.0 0.37 211.0
2024-05-17 20:00 4.56 8.70 292 5.03 49.5 49.6 0.43 196.0
2024-05-17 19:30 4.79 8.33 291 5.12 49.5 49.5 0.45 160.0
2024-05-17 19:00 5.09 8.70 300 5.60 49.3 49.3 0.64 145.0
2024-05-17 18:30 4.99 8.33 301 5.56 49.5 49.1 0.62 152.0
2024-05-17 18:00 3.84 8.33 284 5.02 49.5 49.3 0.66 137.0
2024-05-17 17:30 3.44 8.33 283 4.69 49.5 50.9 0.49 140.0
2024-05-17 17:00 3.71 8.70 285 5.25 49.5 50.4 0.33 145.0
2024-05-17 16:30 4.10 8.33 283 5.57 49.5 50.4 0.33 280.0
2024-05-17 16:00 4.27 9.09 285 5.74 49.1 50.0 0.68 225.0
2024-05-17 15:30 4.40 8.70 290 6.09 49.1 50.5 0.82 238.0
2024-05-17 15:00 4.72 8.70 288 6.38 49.1 50.5 1.03 237.0
2024-05-17 14:30 4.89 9.52 296 6.36 49.1 49.6 1.07 230.0
2024-05-17 14:00 5.25 9.09 292 7.03 49.1 49.3 0.72 247.0
2024-05-17 13:30 4.59 9.52 294 6.82 49.1 49.5 0.54 241.0
2024-05-17 13:00 4.53 9.52 292 6.68 49.3 50.2 0.45 250.0
2024-05-17 12:30 4.23 10.00 297 5.94 49.3 49.8 0.62 292.0
2024-05-17 12:00 4.49 10.00 304 6.03 49.3 49.8 0.74 276.0
2024-05-17 11:30 4.23 9.52 304 5.82 49.3 49.8 0.95 274.0
2024-05-17 11:00 4.13 9.52 303 5.58 49.3 49.8 0.62 279.0
2024-05-17 10:30 3.97 10.00 303 5.29 49.3 50.2 1.01 260.0
2024-05-17 10:00 3.74 9.09 293 5.55 49.1 50.7 0.72 244.0
2024-05-17 09:30 3.94 9.09 284 5.52 49.1 50.7 0.49 236.0
2024-05-17 09:00 3.67 9.09 283 5.19 49.1 50.7 0.16 184.0
2024-05-17 08:30 3.31 7.69 281 4.59 49.1 50.7 0.27 209.0
2024-05-17 08:00 3.12 8.00 284 4.61 49.1 50.9 0.27 139.0
2024-05-17 07:30 3.02 7.69 285 4.28 49.3 50.9 0.43 97.0
2024-05-17 07:00 3.18 7.41 289 4.14 49.3 50.7 0.84 92.0
2024-05-17 06:30 3.12 8.70 291 4.25 49.5 50.9 0.89 90.0
2024-05-17 06:00 3.12 8.33 288 4.20 49.5 50.9 1.13 81.0
2024-05-17 05:30 3.41 7.41 286 4.21 49.5 51.1 1.22 85.0
2024-05-17 05:00 3.61 4.35 291 3.84 49.5 50.5 1.01 84.0
2024-05-17 04:30 3.87 4.35 294 3.95 49.5 51.3 0.78 91.0
2024-05-17 04:00 3.94 4.76 295 3.99 49.5 50.2 0.51 117.0
2024-05-17 03:30 4.13 4.65 289 4.09 49.5 50.2 0.45 140.0
2024-05-17 03:00 3.58 4.76 293 3.87 49.5 0.35 157.0
2024-05-17 02:30 3.97 4.76 287 4.08 49.5 48.7 0.47 190.0
2024-05-17 02:00 4.10 5.26 278 4.15 49.5 49.5 0.51 237.0
2024-05-17 01:30 4.30 5.41 281 4.40 49.6 52.5 0.66 241.0
2024-05-17 01:00 4.72 5.41 281 4.60 49.6 52.2 0.89 246.0
2024-05-17 00:30 4.92 5.88 285 4.84 49.5 51.1 1.01 252.0
2024-05-17 00:00 5.15 5.88 284 4.98 49.5 51.4 1.01 254.0
2024-05-16 23:30 4.99 5.13 288 4.87 49.5 50.7 1.09 261.0
2024-05-16 23:00 5.15 5.56 285 4.78 49.5 51.3 1.03 262.0
2024-05-16 22:30 5.02 4.88 298 4.71 49.5 51.4 1.19 255.0
2024-05-16 22:00 4.56 5.00 287 4.41 49.5 50.7 1.34 244.0
2024-05-16 21:30 4.07 4.88 289 4.20 49.5 50.9 1.24 240.0
2024-05-16 21:00 4.00 4.35 293 4.09 49.5 50.2 0.91 233.0
2024-05-16 20:30 3.51 4.08 303 4.06 49.5 50.9 0.70 241.0
2024-05-16 20:00 3.15 9.09 298 3.96 49.5 51.6 0.68 235.0
2024-05-16 19:30 2.95 7.69 289 4.17 49.5 54.3 0.60 230.0
2024-05-16 19:00 2.99 8.70 291 4.35 49.5 52.3 0.51 233.0
2024-05-16 18:30 3.08 9.09 294 4.22 49.3 51.3 0.74 191.0
2024-05-16 18:00 3.18 8.00 291 4.38 49.3 50.5 0.27 164.0
2024-05-16 17:30 2.85 9.52 292 4.01 49.1 50.9 0.41 183.0
2024-05-16 17:00 2.66 7.69 276 3.90 49.1 50.5 0.62 188.0
2024-05-16 16:30 2.69 6.45 275 3.87 49.1 50.4 0.21 175.0
2024-05-16 16:00 2.66 7.69 281 4.07 48.9 50.7 0.19 243.0
2024-05-16 15:30 3.02 9.09 286 4.46 48.9 50.9 0.47 243.0
2024-05-16 15:00 2.99 8.33 278 4.63 48.7 52.3 0.47 224.0
2024-05-16 14:30 3.15 8.33 280 4.65 48.9 54.9 0.58 224.0
2024-05-16 14:00 3.15 8.70 283 4.52 48.9 51.6 0.56 249.0
2024-05-16 13:30 3.18 8.33 286 4.77 48.9 50.7 0.84 250.0
2024-05-16 13:00 3.05 8.33 286 4.96 49.3 51.6 1.36 241.0
2024-05-16 12:30 3.22 4.65 288 4.75 49.3 51.8 1.05 275.0
2024-05-16 12:00 2.82 4.65 286 4.41 49.5 51.4 0.91 272.0
2024-05-16 11:30 2.85 4.88 282 4.28 49.1 51.6 0.70 259.0
2024-05-16 11:00 2.99 4.76 294 4.31 48.9 51.8 0.70 262.0
2024-05-16 10:30 3.02 4.88 295 4.22 49.1 51.6 0.68 263.0
2024-05-16 10:00 3.02 4.65 296 4.23 49.1 51.3 0.84 254.0
2024-05-16 09:30 3.61 4.65 297 4.08 49.1 50.4 0.49 244.0
2024-05-16 09:00 3.71 4.55 299 3.95 49.1 50.2 0.43 238.0
2024-05-16 08:30 3.54 4.65 294 3.90 49.1 49.8 0.37 200.0
2024-05-16 08:00 3.67 4.88 289 3.98 49.3 49.6 0.37 182.0
2024-05-16 07:30 3.81 4.55 289 3.87 49.5 49.6 0.56 144.0
2024-05-16 07:00 3.71 4.76 288 3.83 49.5 49.3 0.99 130.0
2024-05-16 06:30 3.81 4.76 285 3.95 49.5 49.3 1.09 119.0
2024-05-16 06:00 4.10 4.44 289 3.86 49.6 49.5 1.26 123.0
2024-05-16 05:30 4.17 4.76 281 4.01 48.9 49.3 1.57 98.0
2024-05-16 05:00 4.76 4.65 285 4.07 49.6 49.6 1.17 85.0
2024-05-16 04:30 4.76 4.76 289 4.18 49.6 49.6 1.21 88.0
2024-05-16 04:00 4.99 4.76 292 4.35 49.6 49.8 0.82 90.0
2024-05-16 03:30 4.82 5.00 297 4.44 49.5 50.0 0.62 89.0
2024-05-16 03:00 4.89 5.56 290 4.44 49.5 50.2 0.23 111.0
2024-05-16 02:30 5.02 5.56 296 4.51 49.6 50.2 0.17 182.0
2024-05-16 02:00 4.63 5.41 293 4.48 49.6 50.2 0.33 194.0
2024-05-16 01:30 4.56 5.88 285 4.62 49.8 50.2 0.62 200.0
2024-05-16 01:00 4.69 6.25 284 4.85 50.0 50.5 0.51 204.0
2024-05-16 00:30 4.76 6.06 280 4.85 50.0 51.3 0.66 223.0
2024-05-16 00:00 4.43 5.88 285 4.94 50.0 51.1 0.70 255.0
2024-05-15 23:30 3.87 5.56 290 4.79 49.8 50.9 1.22 260.0
2024-05-15 23:00 3.22 4.17 285 4.64 50.0 50.7 1.28 266.0
2024-05-15 22:30 2.76 4.55 283 4.62 49.8 50.7 0.97 265.0
2024-05-15 22:00 2.79 9.09 295 4.73 49.6 50.5 1.09 283.0
2024-05-15 21:30 2.23 10.00 306 4.58 49.6 50.4 0.86 267.0
2024-05-15 21:00 2.56 8.00 300 5.22 49.8 50.2 1.03 268.0
2024-05-15 20:30 2.33 7.69 291 5.14 49.6 50.2 0.89 280.0
2024-05-15 20:00 2.36 7.14 284 5.10 49.5 49.8 0.49 261.0
2024-05-15 19:30 2.56 8.00 283 5.16 49.5 49.8 0.47 245.0
2024-05-15 19:00 2.66 6.45 285 5.28 49.3 49.5 0.41 261.0
2024-05-15 18:30 3.05 6.90 280 5.91 49.1 49.1 0.49 254.0
2024-05-15 18:00 3.18 8.00 285 6.02 48.9 49.3 0.56 232.0
2024-05-15 17:30 3.15 7.14 276 5.81 48.9 49.3 0.66 203.0
2024-05-15 17:00 2.95 10.00 285 5.52 48.7 49.5 0.08 351.0
2024-05-15 16:30 3.25 7.41 282 5.45 48.9 49.5 0.12 293.0
2024-05-15 16:00 3.08 7.41 284 5.39 48.7 49.3 0.19 216.0
2024-05-15 15:30 2.89 6.90 287 5.28 48.6 49.1 0.25 222.0
2024-05-15 15:00 2.66 7.14 284 5.05 48.7 49.1 0.31 244.0
2024-05-15 14:30 2.79 6.67 291 5.28 48.6 48.9 0.39 228.0
2024-05-15 14:00 2.66 8.00 282 5.06 48.7 49.1 0.54 236.0
2024-05-15 13:30 2.43 7.69 272 4.94 48.7 49.1 0.95 252.0
2024-05-15 13:00 2.53 6.67 286 5.18 48.9 48.9 1.30 248.0
2024-05-15 12:30 2.10 7.14 286 4.73 49.1 48.7 1.40 241.0
2024-05-15 12:00 2.59 6.90 290 4.84 49.1 48.6 1.19 253.0
2024-05-15 11:30 2.72 7.41 286 4.74 48.9 48.7 0.99 282.0
2024-05-15 11:00 2.85 7.14 293 4.77 49.1 49.3 1.36 296.0
2024-05-15 10:30 2.85 7.69 296 4.86 48.9 49.5 1.22 293.0
2024-05-15 10:00 2.89 6.25 291 5.08 48.9 49.8 1.15 258.0
2024-05-15 09:30 2.85 8.00 296 5.32 49.3 49.5 1.36 261.0
2024-05-15 09:00 3.12 7.41 289 5.43 49.1 49.3 1.34 252.0
2024-05-15 08:30 3.48 7.14 296 5.49 49.1 49.3 1.17 236.0
2024-05-15 08:00 3.41 7.14 291 4.93 49.3 49.3 0.39 200.0
2024-05-15 07:30 3.61 7.14 285 4.90 49.5 49.3 0.54 195.0
2024-05-15 07:00 3.61 7.41 291 4.61 49.5 49.6 0.58 89.0
2024-05-15 06:30 3.67 6.90 299 4.49 49.5 49.3 0.84 104.0
2024-05-15 06:00 3.67 10.53 292 4.37 49.3 49.5 1.32 108.0
2024-05-15 05:30 3.18 4.00 300 4.02 48.9 50.0 1.71 92.0
2024-05-15 05:00 2.85 3.64 307 3.63 49.1 50.7 2.10 82.0
2024-05-15 04:30 2.72 10.00 294 4.10 49.5 51.3 1.50 99.0
2024-05-15 04:00 2.56 11.11 299 4.19 49.3 51.4 1.59 81.0
2024-05-15 03:30 3.41 11.76 299 4.36 49.5 52.2 1.13 78.0
2024-05-15 03:00 4.00 10.00 297 5.20 49.6 52.7 0.68 83.0
2024-05-15 02:30 3.64 9.52 301 4.94 50.0 52.9 0.52 85.0
2024-05-15 02:00 3.87 10.53 293 5.14 50.2 52.9 0.27 152.0
2024-05-15 01:30 3.97 10.53 291 5.72 50.4 53.6 0.37 168.0
2024-05-15 01:00 3.67 10.00 291 6.05 50.0 54.0 0.43 154.0
2024-05-15 00:30 3.51 11.11 294 6.21 49.5 53.6 0.23 181.0
2024-05-15 00:00 3.28 11.11 298 5.84 49.5 52.3 0.23 220.0
2024-05-14 23:30 3.08 11.11 296 6.41 49.5 53.4 0.27 224.0
2024-05-14 23:00 2.85 11.11 295 6.73 49.6 51.3 0.86 246.0
2024-05-14 22:30 2.82 11.11 298 7.07 49.3 50.7 0.91 223.0
2024-05-14 22:00 2.76 11.76 296 7.42 48.7 50.4 0.76 226.0
2024-05-14 21:30 2.46 11.76 300 8.28 48.4 50.0 0.23 249.0
2024-05-14 21:00 2.92 11.76 307 8.61 49.1 49.8 0.76 264.0
2024-05-14 20:30 3.22 11.76 304 8.72 49.6 48.9 1.44 260.0
2024-05-14 20:00 3.12 11.76 300 8.33 49.5 48.4 1.30 259.0
2024-05-14 19:30 3.87 9.09 299 8.53 49.5 47.7 1.69 269.0
2024-05-14 19:00 3.35 10.53 296 8.22 49.8 47.5 1.42 282.0
2024-05-14 18:30 2.89 10.00 294 7.84 49.6 47.7 1.46 276.0
2024-05-14 18:00 2.85 8.70 291 7.55 49.3 46.9 1.15 256.0
2024-05-14 17:30 3.25 12.50 302 7.95 48.9 47.8 1.07 243.0
2024-05-14 17:00 3.81 9.09 297 8.04 48.9 47.7 0.47 219.0
2024-05-14 16:30 3.74 10.00 299 7.98 48.7 47.5 0.70 238.0
2024-05-14 16:00 3.87 10.00 298 7.89 48.6 47.5 0.52 220.0
2024-05-14 15:30 3.94 7.41 289 7.81 48.4 47.5 0.60 200.0
2024-05-14 15:00 3.51 8.00 290 7.85 48.6 47.5 0.47 181.0
2024-05-14 14:30 3.51 8.00 295 7.67 48.6 0.51 202.0
2024-05-14 14:00 3.15 7.14 294 7.41 48.6 0.39 211.0
2024-05-14 13:30 2.76 8.33 286 7.32 48.6 46.0 0.31 232.0
2024-05-14 13:00 2.53 11.11 296 7.85 48.6 46.0 0.47 247.0
2024-05-14 12:30 2.46 11.76 298 8.45 48.6 46.0 0.87 233.0
2024-05-14 12:00 1.61 6.90 284 6.37 48.6 46.8 1.05 246.0
2024-05-14 11:30 1.77 7.41 291 6.05 48.6 47.8 0.84 257.0
2024-05-14 11:00 2.17 11.76 307 6.36 48.6 47.5 0.86 260.0
2024-05-14 10:30 2.13 12.50 307 6.55 48.6 48.0 1.01 272.0
2024-05-14 10:00 2.23 11.76 306 6.88 48.6 48.6 0.87 282.0
2024-05-14 09:30 2.49 13.33 308 7.60 48.6 48.7 1.15 279.0
2024-05-14 09:00 2.03 11.76 297 7.15 48.6 48.6 1.13 257.0
2024-05-14 08:30 2.10 11.76 305 7.13 48.4 49.3 0.99 251.0
2024-05-14 08:00 2.03 12.50 302 6.19 48.4 48.9 0.47 239.0
2024-05-14 07:30 2.00 11.11 298 4.96 48.6 49.3 0.33 207.0
2024-05-14 07:00 2.40 12.50 304 5.35 48.6 48.9 0.23 193.0
2024-05-14 06:30 2.43 11.76 306 4.43 48.6 49.1 0.14 56.0
2024-05-14 06:00 2.76 11.76 306 4.16 48.6 49.3 0.23 127.0
2024-05-14 05:30 2.85 3.45 293 3.81 48.6 49.5 0.76 104.0
2024-05-14 05:00 3.05 11.76 309 4.00 48.6 49.5 1.13 103.0
2024-05-14 04:30 3.38 11.76 297 4.26 48.6 49.6 1.36 102.0
2024-05-14 04:00 3.48 11.76 303 4.51 48.4 2.06 98.0
2024-05-14 03:30 3.54 11.76 300 4.85 48.6 50.0 2.10 80.0
2024-05-14 03:00 3.58 11.11 300 4.94 49.1 50.5 1.44 82.0
2024-05-14 02:30 4.53 11.11 300 5.29 49.3 50.9 1.11 75.0
2024-05-14 02:00 4.59 11.76 303 5.09 49.5 51.3 0.86 92.0
2024-05-14 01:30 4.27 11.76 304 4.74 49.5 52.2 0.68 116.0
2024-05-14 01:00 4.49 11.76 298 4.78 49.5 52.2 0.95 153.0
2024-05-14 00:30 4.46 5.00 286 4.46 49.3 51.4 1.19 160.0
2024-05-14 00:00 3.74 5.00 280 4.08 48.7 52.2 0.70 108.0
2024-05-13 23:30 3.74 5.26 278 4.21 48.7 51.3 0.39 138.0
2024-05-13 23:00 3.90 5.13 274 4.41 48.7 51.6 0.54 205.0
2024-05-13 22:30 4.27 5.41 272 4.66 48.7 51.3 1.13 211.0
2024-05-13 22:00 3.97 5.26 272 4.55 49.1 51.4 1.19 232.0
2024-05-13 21:30 3.97 6.06 263 4.66 48.7 51.1 1.13 240.0
2024-05-13 21:00 3.58 5.56 266 4.58 48.6 50.7 0.99 244.0
2024-05-13 20:30 3.74 5.13 276 4.58 48.2 50.5 1.42 254.0
2024-05-13 20:00 3.74 12.50 307 5.24 48.2 50.5 1.48 265.0
2024-05-13 19:30 3.77 12.50 305 5.57 48.4 50.2 1.40 249.0
2024-05-13 19:00 3.61 12.50 307 5.55 48.4 50.2 1.44 253.0
2024-05-13 18:30 3.61 13.33 298 5.81 48.2 50.0 0.99 269.0
2024-05-13 18:00 3.31 13.33 305 5.24 48.2 49.8 0.97 250.0
2024-05-13 17:30 3.48 11.11 303 5.61 48.4 49.6 1.38 254.0
2024-05-13 17:00 3.35 13.33 298 5.17 48.4 49.5 1.63 252.0
2024-05-13 16:30 3.18 5.88 291 4.80 48.2 49.5 1.36 253.0
2024-05-13 16:00 3.22 5.88 293 4.63 48.2 49.3 1.24 247.0
2024-05-13 15:30 3.31 12.50 306 4.78 48.2 49.3 1.13 248.0
2024-05-13 15:00 3.31 12.50 305 4.63 48.2 49.3 0.86 247.0
2024-05-13 14:30 3.38 11.76 298 4.71 48.2 49.1 0.60 238.0
2024-05-13 14:00 3.38 12.50 301 4.43 48.2 49.3 0.29 231.0
2024-05-13 13:30 3.31 12.50 300 4.64 48.2 49.1 0.47 316.0
2024-05-13 13:00 3.41 12.50 301 4.90 48.2 49.1 0.68 287.0
2024-05-13 12:30 3.22 13.33 299 4.83 48.2 49.6 0.89 271.0
2024-05-13 12:00 2.85 13.33 303 4.75 48.2 49.6 0.99 246.0
2024-05-13 11:30 2.79 4.26 296 4.44 48.2 49.1 1.32 242.0
2024-05-13 11:00 2.33 4.44 292 3.87 48.4 49.1 0.16 10.0
2024-05-13 10:30 2.49 4.35 319 3.66 48.4 49.3 0.19 298.0
2024-05-13 10:00 2.89 4.44 310 3.96 48.4 49.3 0.56 288.0
2024-05-13 09:30 2.99 4.35 307 4.12 48.2 49.1 0.70 280.0
2024-05-13 09:00 2.89 4.35 299 4.22 48.2 49.1 0.99 255.0
2024-05-13 08:30 2.76 4.65 295 4.13 48.2 49.1 1.05 258.0
2024-05-13 08:00 2.69 4.35 300 4.16 48.2 49.5 0.99 256.0
2024-05-13 07:30 2.76 4.76 293 4.21 48.2 49.3 0.87 249.0
2024-05-13 07:00 2.95 4.55 298 4.04 48.2 48.9 0.70 224.0
2024-05-13 06:30 2.92 4.35 302 3.73 48.2 48.6 0.76 206.0
2024-05-13 06:00 2.99 4.55 301 3.75 48.4 48.6 0.89 175.0
2024-05-13 05:30 3.02 4.00 300 3.69 48.4 48.9 1.05 137.0
2024-05-13 05:00 3.38 6.45 290 3.68 48.4 49.5 1.22 115.0
2024-05-13 04:30 3.25 6.25 293 3.68 48.4 50.0 1.56 100.0
2024-05-13 04:00 3.35 6.67 295 3.86 48.6 50.7 1.73 98.0
2024-05-13 03:30 3.25 6.25 301 4.07 48.9 51.3 2.18 96.0
2024-05-13 03:00 3.08 6.25 302 4.21 49.1 52.0 2.25 100.0
2024-05-13 02:30 3.02 6.67 303 4.53 48.9 52.0 2.10 97.0
2024-05-13 02:00 2.72 6.25 303 3.69 48.9 52.5 1.69 73.0
2024-05-13 01:30 3.77 3.85 298 3.93 48.9 53.1 0.82 96.0
2024-05-13 01:00 4.27 4.35 294 4.09 48.9 52.7 0.62 125.0
2024-05-13 00:30 4.76 5.00 294 4.34 48.9 52.7 0.70 146.0
2024-05-13 00:00 5.15 4.76 282 4.37 48.6 53.1 0.62 129.0
2024-05-12 23:30 5.48 5.88 280 4.60 48.9 52.7 0.64 157.0
2024-05-12 23:00 5.35 5.56 295 4.62 48.4 52.5 0.54 133.0
2024-05-12 22:30 4.49 5.56 293 4.34 48.0 51.6 0.35 143.0
2024-05-12 22:00 3.71 7.14 282 4.39 48.0 51.4 0.60 235.0
2024-05-12 21:30 2.79 7.14 301 4.16 47.8 50.9 0.51 167.0
2024-05-12 21:00 2.17 7.69 295 3.39 47.8 50.9 0.49 127.0
2024-05-12 20:30 1.71 7.69 297 3.41 48.0 50.9 0.19 180.0
2024-05-12 20:00 2.00 7.69 280 4.63 47.8 51.3 0.49 253.0
2024-05-12 19:30 1.64 8.00 281 5.13 47.8 51.1 0.66 223.0
2024-05-12 19:00 1.84 7.69 278 5.78 47.8 50.9 0.82 252.0
2024-05-12 18:30 1.97 8.00 277 6.08 47.7 50.5 1.11 260.0
2024-05-12 18:00 1.94 8.00 282 6.27 47.7 50.2 1.44 264.0
2024-05-12 17:30 2.20 8.33 284 6.56 48.4 50.2 1.30 280.0
2024-05-12 17:00 2.85 8.33 304 7.02 48.4 50.2 1.92 275.0
2024-05-12 16:30 3.18 8.70 310 7.13 48.2 50.0 2.24 262.0
2024-05-12 16:00 3.35 8.00 305 6.89 48.6 50.4 1.73 265.0
2024-05-12 15:30 3.02 8.00 304 6.47 48.2 50.4 1.79 261.0
2024-05-12 15:00 3.84 8.00 294 6.79 48.2 50.5 1.56 259.0
2024-05-12 14:30 3.77 8.00 297 6.69 48.0 50.0 1.32 265.0
2024-05-12 14:00 3.71 8.00 295 6.39 48.0 50.4 1.21 268.0
2024-05-12 13:30 3.44 7.41 295 6.02 47.8 50.2 0.39 292.0
2024-05-12 13:00 3.35 8.00 295 6.19 47.8 50.2 0.47 322.0
2024-05-12 12:30 3.61 7.41 300 6.30 47.8 50.2 0.54 321.0
2024-05-12 12:00 3.74 8.00 301 6.57 47.8 50.2 0.80 301.0
2024-05-12 11:30 3.18 7.69 304 6.19 47.8 50.2 0.87 284.0
2024-05-12 11:00 2.76 8.33 297 5.87 48.0 50.0 1.38 255.0
2024-05-12 10:30 2.66 8.33 294 6.17 48.0 49.8 1.79 240.0
2024-05-12 10:00 1.84 8.33 298 4.35 48.2 50.2 0.19 321.0
2024-05-12 09:30 1.87 4.44 293 3.89 48.2 50.2 0.49 283.0
2024-05-12 09:00 2.36 4.76 290 4.40 48.6 50.9 0.72 290.0
2024-05-12 08:30 2.82 8.33 306 4.82 48.2 50.7 0.89 279.0
2024-05-12 08:00 2.76 9.09 306 4.76 48.2 51.4 1.15 273.0
2024-05-12 07:30 2.89 8.33 299 4.72 48.6 51.6 1.26 259.0
2024-05-12 07:00 2.69 4.26 296 4.51 48.4 51.6 1.07 247.0
2024-05-12 06:30 2.92 9.09 302 4.57 48.4 52.0 1.11 237.0
2024-05-12 06:00 3.02 8.70 299 4.38 48.4 51.8 0.82 196.0
2024-05-12 05:30 3.18 8.70 299 4.45 49.1 51.4 0.93 174.0
2024-05-12 05:00 3.58 8.33 300 4.50 48.6 51.6 1.05 141.0
2024-05-12 04:30 3.90 8.00 299 4.55 48.2 51.3 0.95 113.0
2024-05-12 04:00 4.23 7.69 299 4.52 48.4 51.4 1.48 114.0
2024-05-12 03:30 4.07 7.41 301 4.41 48.2 52.0 1.89 111.0
2024-05-12 03:00 4.33 4.65 296 4.49 48.0 52.2 2.20 99.0
2024-05-12 02:30 3.84 8.00 301 4.85 48.6 52.9 3.05 95.0
2024-05-12 02:00 3.05 7.69 307 5.28 48.6 53.1 3.23 98.0
2024-05-12 01:30 2.53 7.14 301 5.61 48.2 53.8 3.15 97.0
2024-05-12 01:00 2.89 7.14 290 5.88 48.9 53.8 1.54 75.0
2024-05-12 00:30 3.48 6.67 298 5.47 48.2 54.1 1.15 87.0
2024-05-12 00:00 3.58 7.41 296 5.55 48.7 53.1 1.01 113.0
2024-05-11 23:30 4.23 7.41 286 6.19 48.6 51.8 0.97 114.0
2024-05-11 23:00 3.28 8.00 280 6.08 48.4 51.6 1.24 96.0
2024-05-11 22:30 3.05 7.69 273 6.49 48.4 51.3 0.86 79.0
2024-05-11 22:00 3.15 7.69 279 6.79 48.6 51.6 0.51 49.0
2024-05-11 21:30 3.22 8.00 284 7.29 48.4 52.2 0.23 13.0
2024-05-11 21:00 3.54 8.33 288 8.01 48.9 55.4 0.58 233.0
2024-05-11 20:30 3.41 8.70 285 8.42 50.2 55.6 0.76 182.0
2024-05-11 20:00 2.43 8.70 282 8.37 48.2 56.1 0.56 210.0
2024-05-11 19:30 2.46 9.09 284 8.67 47.8 54.5 0.70 219.0
2024-05-11 19:00 2.46 10.00 283 8.98 47.7 51.4 0.62 231.0
2024-05-11 18:30 2.23 10.53 288 8.66 47.5 51.3 0.64 243.0
2024-05-11 18:00 1.80 9.52 280 8.25 47.5 0.95 231.0
2024-05-11 17:30 2.03 11.11 294 8.72 47.7 50.9 1.21 251.0
2024-05-11 17:00 2.49 10.00 299 8.73 47.7 50.7 2.08 254.0
2024-05-11 16:30 2.79 10.00 296 8.84 47.7 2.35 262.0
2024-05-11 16:00 2.66 8.70 291 8.19 48.0 50.7 1.85 265.0
2024-05-11 15:30 2.49 10.00 297 8.24 47.7 51.8 1.96 264.0
2024-05-11 15:00 2.03 11.11 291 7.61 48.6 50.0 2.25 263.0
2024-05-11 14:30 2.40 10.53 296 7.87 48.0 48.6 2.12 262.0
2024-05-11 14:00 2.17 10.00 296 7.69 46.4 49.8 0.89 288.0
2024-05-11 13:30 2.30 10.00 301 8.16 47.7 47.5 0.62 322.0
2024-05-11 13:00 2.40 10.00 302 7.99 47.7 48.7 1.13 311.0
2024-05-11 12:30 2.10 9.09 300 8.01 47.7 49.5 0.89 309.0
2024-05-11 12:00 1.84 10.53 300 7.56 47.8 48.2 1.03 299.0
2024-05-11 11:30 1.74 8.00 295 7.45 47.7 48.7 1.01 279.0
2024-05-11 11:00 1.97 8.70 292 7.64 47.7 48.9 1.05 265.0
2024-05-11 10:30 1.64 10.00 292 7.34 47.8 49.3 1.13 243.0
2024-05-11 10:00 1.44 7.14 288 6.95 48.0 49.5 1.36 242.0
2024-05-11 09:30 1.51 10.53 293 7.68 47.8 51.1 0.23 285.0
2024-05-11 09:00 1.41 10.53 302 6.60 48.0 51.1 0.64 259.0
2024-05-11 08:30 1.74 11.11 301 7.15 48.2 52.2 0.60 271.0
2024-05-11 08:00 1.80 10.53 297 8.00 48.2 51.8 0.95 268.0
2024-05-11 07:30 1.71 10.53 297 8.17 48.4 52.9 0.86 253.0
2024-05-11 07:00 1.61 10.53 294 8.01 48.2 54.0 0.58 265.0
2024-05-11 06:30 1.64 11.11 297 7.74 48.4 53.2 0.68 249.0
2024-05-11 06:00 1.84 11.11 299 7.81 48.6 52.7 0.43 246.0
2024-05-11 05:30 1.54 10.00 298 6.39 48.6 52.0 0.39 220.0
2024-05-11 05:00 1.84 10.53 303 6.90 48.6 52.3 0.51 155.0
2024-05-11 04:30 1.71 10.53 300 7.15 48.4 52.2 0.62 136.0
2024-05-11 04:00 1.61 11.11 303 7.57 48.4 52.5 0.66 105.0
2024-05-11 03:30 1.94 10.53 302 7.97 48.4 53.1 1.13 110.0
2024-05-11 03:00 2.33 9.52 301 8.14 48.6 52.2 1.73 113.0
2024-05-11 02:30 2.23 10.53 297 8.13 48.4 52.7 2.27 104.0
2024-05-11 02:00 1.74 10.53 296 7.37 48.7 52.2 2.76 102.0
2024-05-11 01:30 1.74 10.00 300 7.74 48.6 52.3 3.25 104.0
2024-05-11 01:00 1.67 10.53 298 7.98 48.6 3.27 103.0
2024-05-11 00:30 1.94 9.52 295 7.43 48.9 3.05 97.0
2024-05-11 00:00 2.13 8.70 294 7.48 48.2 54.5 1.38 87.0
2024-05-10 23:30 1.90 8.70 286 6.85 48.0 56.3 1.26 93.0
2024-05-10 23:00 1.90 9.52 292 6.92 48.0 56.5 1.13 95.0
2024-05-10 22:30 2.20 10.53 287 7.79 48.0 55.4 1.38 79.0
2024-05-10 22:00 2.07 10.53 287 7.47 48.7 54.7 1.05 61.0
2024-05-10 21:30 1.87 8.33 294 7.27 48.7 55.6 0.62 83.0
2024-05-10 21:00 2.43 9.09 292 8.19 48.4 55.4 0.54 54.0
2024-05-10 20:30 1.94 10.53 304 8.15 48.4 55.4 0.17 79.0
2024-05-10 20:00 2.40 11.11 287 9.24 48.2 54.9 0.74 190.0
2024-05-10 19:30 1.97 11.11 285 9.01 48.0 54.7 0.80 191.0
2024-05-10 19:00 1.94 11.76 300 9.48 48.0 54.9 0.86 201.0
2024-05-10 18:30 2.13 12.50 290 9.83 47.8 54.7 1.07 205.0
2024-05-10 18:00 2.36 10.53 282 9.95 47.5 53.6 0.91 226.0
2024-05-10 17:30 2.66 10.53 287 9.39 47.3 53.1 0.99 239.0
2024-05-10 17:00 2.49 11.76 291 9.51 47.5 53.8 0.97 241.0
2024-05-10 16:30 2.56 11.11 290 9.75 47.7 55.8 1.36 245.0
2024-05-10 16:00 2.17 11.11 298 9.82 47.7 56.5 1.79 259.0
2024-05-10 15:30 2.26 11.11 300 9.47 48.2 54.9 1.79 270.0
2024-05-10 15:00 2.36 11.11 298 9.32 48.2 55.4 2.29 272.0
2024-05-10 14:30 2.26 11.11 303 9.04 47.8 55.6 1.77 267.0
2024-05-10 14:00 2.20 11.76 305 9.68 47.8 53.8 1.13 263.0
2024-05-10 13:30 2.00 11.11 307 8.53 47.8 55.9 0.72 280.0
2024-05-10 13:00 2.00 10.53 302 7.37 48.0 53.8 0.60 303.0
2024-05-10 12:30 2.20 10.53 302 7.79 47.8 49.3 0.43 311.0
2024-05-10 12:00 2.20 11.11 303 8.73 47.8 48.4 0.91 313.0
2024-05-10 11:30 2.23 11.11 302 8.24 47.7 48.2 0.78 305.0
2024-05-10 11:00 2.43 10.00 302 8.46 47.7 48.6 0.87 298.0
2024-05-10 10:30 2.43 10.53 300 8.62 47.8 48.2 0.74 265.0
2024-05-10 10:00 2.53 10.00 296 8.54 47.8 48.4 0.78 241.0
2024-05-10 09:30 3.22 10.53 297 9.01 48.0 48.4 1.03 241.0
2024-05-10 09:00 2.49 9.52 295 8.70 48.2 49.3 1.24 234.0
2024-05-10 08:30 1.67 10.53 299 7.28 48.6 49.3 0.21 16.0
2024-05-10 08:00 3.18 10.53 307 8.74 48.7 0.12 330.0
2024-05-10 07:30 2.30 10.53 303 8.06 48.9 0.27 151.0
2024-05-10 07:00 2.23 11.11 300 8.73 49.1 51.6 0.70 216.0
2024-05-10 06:30 2.46 11.11 298 7.98 48.9 52.7 0.86 239.0
2024-05-10 06:00 2.03 10.00 295 6.73 48.7 53.1 0.54 250.0
2024-05-10 05:30 2.13 11.11 301 6.79 48.7 52.9 0.47 246.0
2024-05-10 05:00 2.13 11.11 300 6.22 48.9 52.7 0.43 183.0
2024-05-10 04:30 1.90 11.11 302 7.04 48.7 0.37 92.0
2024-05-10 04:00 1.94 11.76 303 8.64 48.7 0.49 67.0
2024-05-10 03:30 2.23 11.11 302 8.96 48.7 0.60 78.0
2024-05-10 03:00 2.36 11.11 303 8.87 48.9 57.9 0.84 79.0
2024-05-10 02:30 2.30 10.53 301 8.40 49.1 57.4 1.21 97.0
2024-05-10 02:00 2.76 10.00 302 8.51 49.1 57.7 1.65 95.0
2024-05-10 01:30 2.43 10.53 303 8.05 49.3 56.3 2.04 89.0
2024-05-10 01:00 2.23 10.53 303 8.16 49.3 58.5 2.35 92.0
2024-05-10 00:30 1.77 10.00 294 8.19 48.6 56.5 2.31 87.0
2024-05-10 00:00 2.62 9.52 299 7.66 48.6 57.0 2.12 90.0
2024-05-09 23:30 2.46 9.52 286 7.58 48.4 58.6 1.42 90.0
2024-05-09 23:00 3.44 9.09 289 8.05 48.6 56.8 1.34 89.0
2024-05-09 22:30 3.22 9.09 289 7.49 49.1 55.9 0.87 130.0
2024-05-09 22:00 2.72 9.09 287 6.87 48.0 55.4 1.79 96.0
2024-05-09 21:30 2.89 8.00 290 7.56 47.5 54.7 1.30 68.0
2024-05-09 21:00 2.40 9.52 303 7.27 48.4 54.9 0.89 89.0
2024-05-09 20:30 2.00 9.52 283 7.12 48.4 53.8 0.93 96.0
2024-05-09 20:00 1.74 8.33 291 7.00 48.2 54.1 0.45 88.0
2024-05-09 19:30 1.57 9.52 291 7.19 48.4 53.8 0.49 120.0
2024-05-09 19:00 2.10 9.52 287 8.34 48.2 54.0 0.49 157.0
2024-05-09 18:30 1.90 10.53 295 8.36 47.8 53.6 0.66 205.0
2024-05-09 18:00 1.28 11.11 301 6.91 48.4 53.2 0.41 173.0
2024-05-09 17:30 1.15 9.52 321 7.20 47.3 52.7 0.60 226.0
2024-05-09 17:00 1.57 10.53 278 7.98 47.5 52.7 0.37 268.0
2024-05-09 16:30 1.71 10.53 280 8.48 47.7 52.9 0.49 246.0
2024-05-09 16:00 1.67 11.11 299 8.44 47.7 53.6 0.51 243.0
2024-05-09 15:30 1.35 11.11 295 7.84 47.7 53.2 1.13 279.0
2024-05-09 15:00 1.38 11.11 289 7.42 48.0 54.0 1.44 265.0
2024-05-09 14:30 1.61 11.11 298 7.41 47.8 52.7 1.65 278.0
2024-05-09 14:00 1.84 11.11 305 8.45 48.0 52.7 1.22 294.0
2024-05-09 13:30 1.57 11.11 302 7.94 48.0 51.6 1.07 300.0
2024-05-09 13:00 1.28 10.53 297 6.79 47.1 49.1 0.56 308.0
2024-05-09 12:30 1.21 11.11 299 5.43 48.2 49.6 0.06 104.0
2024-05-09 12:00 1.38 10.53 296 5.18 47.8 46.0 0.29 55.0
2024-05-09 11:30 1.48 11.11 303 6.11 47.8 47.3 0.14 28.0
2024-05-09 11:00 1.54 11.11 299 6.38 48.2 45.9 0.37 17.0
2024-05-09 10:30 1.48 10.53 298 5.59 48.0 46.6 0.49 16.0
2024-05-09 10:00 1.41 11.11 302 4.68 48.2 46.6 0.43 350.0
2024-05-09 09:30 1.51 9.52 297 4.80 48.2 46.6 0.16 223.0
2024-05-09 09:00 1.54 11.11 299 4.79 48.6 46.8 0.49 213.0
2024-05-09 08:30 1.77 9.09 294 5.56 48.7 47.1 0.72 200.0
2024-05-09 08:00 1.38 10.53 302 5.10 48.2 47.5 0.62 182.0
2024-05-09 07:30 1.67 10.53 303 5.15 48.2 47.8 0.12 171.0
2024-05-09 07:00 2.49 11.11 308 5.80 48.2 48.7 0.47 291.0
2024-05-09 06:30 2.23 10.00 303 5.51 48.2 48.9 0.27 286.0
2024-05-09 06:00 2.07 11.76 305 5.82 48.2 48.7 0.56 278.0
2024-05-09 05:30 2.03 11.76 299 5.45 48.2 49.3 0.47 281.0
2024-05-09 05:00 1.80 10.53 299 5.35 48.2 49.5 0.29 277.0
2024-05-09 04:30 1.57 10.00 302 5.10 48.4 49.6 0.14 191.0
2024-05-09 04:00 1.74 9.52 299 5.49 48.6 49.5 0.43 108.0
2024-05-09 03:30 1.61 11.11 295 5.17 48.6 50.0 0.58 114.0
2024-05-09 03:00 1.64 10.53 294 4.99 48.6 50.7 0.82 99.0
2024-05-09 02:30 1.61 12.50 295 4.61 48.6 50.5 1.07 99.0
2024-05-09 02:00 1.77 10.53 308 4.00 49.1 50.7 1.30 80.0
2024-05-09 01:30 1.87 9.52 296 3.45 48.7 50.7 1.57 90.0
2024-05-09 01:00 2.10 10.53 312 3.65 49.1 50.7 1.81 98.0
2024-05-09 00:30 2.17 9.52 295 4.09 49.1 50.7 2.25 106.0
2024-05-09 00:00 2.00 11.11 297 4.28 49.5 50.7 2.29 99.0
2024-05-08 23:30 1.97 9.52 289 4.23 49.3 50.5 2.76 97.0
2024-05-08 23:00 1.77 10.53 295 5.06 48.9 50.4 3.09 103.0
2024-05-08 22:30 1.80 9.52 298 5.27 48.6 50.0 1.63 91.0
2024-05-08 22:00 2.20 6.90 293 4.74 48.2 49.8 1.56 96.0
2024-05-08 21:30 1.90 8.33 308 4.33 48.2 49.8 1.42 113.0
2024-05-08 21:00 2.53 9.52 295 4.82 48.0 49.5 1.24 78.0
2024-05-08 20:30 2.99 10.00 301 5.19 47.8 49.3 1.01 90.0
2024-05-08 20:00 3.18 9.52 289 5.85 48.0 49.1 0.99 110.0
2024-05-08 19:30 2.82 9.09 287 6.47 48.0 48.7 0.80 102.0
2024-05-08 19:00 2.20 11.11 300 5.99 47.7 48.4 0.78 113.0
2024-05-08 18:30 1.84 11.11 295 5.19 47.5 48.4 0.70 129.0
2024-05-08 18:00 1.71 11.76 294 5.31 47.5 48.4 0.66 160.0
2024-05-08 17:30 1.84 10.00 290 6.22 47.7 48.4 0.86 197.0
2024-05-08 17:00 1.61 11.76 283 6.77 47.7 48.2 1.40 185.0
2024-05-08 16:30 1.54 9.52 292 5.58 46.8 48.0 0.72 217.0
2024-05-08 16:00 1.54 7.69 279 5.32 46.8 48.4 0.68 251.0
2024-05-08 15:30 1.80 10.53 300 5.93 46.9 48.7 2.20 241.0
2024-05-08 15:00 1.51 10.00 292 5.96 47.5 49.1 2.24 247.0
2024-05-08 14:30 1.38 11.76 303 5.28 47.7 48.9 1.63 275.0
2024-05-08 14:00 1.61 10.00 302 5.12 48.2 48.7 0.60 267.0
2024-05-08 13:30 2.13 11.11 305 6.08 48.2 48.7 0.68 275.0
2024-05-08 13:00 2.36 10.00 294 5.81 48.2 48.6 0.33 269.0
2024-05-08 12:30 2.62 11.11 298 5.85 48.4 47.8 0.17 318.0
2024-05-08 12:00 2.82 10.53 298 5.80 48.4 47.8 0.33 142.0
2024-05-08 11:30 2.69 10.53 297 5.51 48.4 46.8 0.62 135.0
2024-05-08 11:00 2.95 10.00 297 5.44 48.2 48.2 0.68 85.0
2024-05-08 10:30 3.08 10.00 296 5.32 48.2 48.0 0.74 69.0
2024-05-08 10:00 2.99 10.53 296 5.77 48.2 48.0 0.99 67.0
2024-05-08 09:30 3.05 10.53 295 5.68 47.8 47.8 0.62 21.0
2024-05-08 09:00 2.59 9.52 291 5.44 47.8 48.0 0.58 9.0
2024-05-08 08:30 2.56 10.00 297 4.85 47.8 48.0 0.58 358.0
2024-05-08 08:00 2.20 10.53 299 4.18 47.7 48.2 0.49 298.0
2024-05-08 07:30 2.30 10.53 297 4.85 47.7 48.2 0.56 253.0
2024-05-08 07:00 2.66 11.11 289 5.67 47.8 48.4 0.66 262.0
2024-05-08 06:30 2.33 11.11 281 4.35 48.2 48.6 0.08 338.0
2024-05-08 06:00 2.69 4.65 313 3.91 48.2 48.7 0.27 356.0
2024-05-08 05:30 3.15 11.76 296 4.31 48.2 48.9 0.29 262.0
2024-05-08 05:00 3.18 4.88 299 4.26 48.4 48.7 0.39 278.0
2024-05-08 04:30 3.44 4.88 301 4.26 48.6 48.9 0.82 248.0
2024-05-08 04:00 3.74 4.65 293 4.31 48.7 49.1 1.32 241.0
2024-05-08 03:30 3.64 4.88 289 4.26 48.9 49.1 1.30 227.0
2024-05-08 03:00 3.61 4.65 299 3.95 48.2 49.1 0.84 162.0
2024-05-08 02:30 3.44 4.65 308 3.63 48.2 49.5 0.86 135.0
2024-05-08 02:00 3.44 4.35 302 3.59 48.0 49.6 0.99 120.0
2024-05-08 01:30 3.35 4.17 305 3.67 48.6 49.6 1.21 110.0
2024-05-08 01:00 3.51 4.26 301 3.82 48.9 49.8 1.26 108.0
2024-05-08 00:30 3.51 3.85 295 3.89 48.2 49.6 1.34 98.0
2024-05-08 00:00 3.25 3.85 294 4.06
2024-05-07 23:30 2.76 11.76 295 4.50 48.2 49.6 2.55 106.0
2024-05-07 23:00 2.23 10.53 297 3.78 48.2 49.6 2.59 103.0
2024-05-07 22:30 2.40 10.53 285 4.38 48.2 49.5 2.16 101.0
2024-05-07 22:00 2.56 7.69 303 3.80 48.0 49.6 1.63 119.0
2024-05-07 21:30 2.03 8.70 328 4.32 48.2 49.3 1.87 100.0
2024-05-07 21:00 2.10 7.69 324 3.78 48.2 49.3 1.75 90.0
2024-05-07 20:30 3.25 8.70 318 4.86 47.7 48.9 1.67 84.0
2024-05-07 20:00 3.84 9.52 301 5.94 47.8 48.6 1.21 78.0
2024-05-07 19:30 4.43 10.00 301 6.82 47.8 48.7 0.74 74.0
2024-05-07 19:00 3.90 8.00 282 6.32 47.7 48.4 0.31 104.0
2024-05-07 18:30 4.72 10.53 281 7.96 47.7 48.2 0.29 135.0
2024-05-07 18:00 4.36 11.11 286 8.97 47.5 48.2 0.35 142.0
2024-05-07 17:30 3.02 11.76 283 7.12 47.5 47.3 0.31 201.0
2024-05-07 17:00 2.49 11.11 296 6.44 47.3 48.2 0.97 236.0
2024-05-07 16:30 2.72 11.76 291 7.20 47.3 47.8 1.81 227.0
2024-05-07 16:00 2.26 11.76 308 7.08 47.7 48.4 0.49 100.0
2024-05-07 15:30 1.54 10.00 289 4.23 47.7 48.0 0.21 68.0
2024-05-07 15:00 1.87 10.53 295 5.26 47.7 48.0 0.87 250.0
2024-05-07 14:30 2.23 10.53 300 6.37 47.7 48.0 1.61 253.0
2024-05-07 14:00 2.23 11.76 300 7.32 47.7 47.8 1.67 272.0
2024-05-07 13:30 2.36 11.11 301 7.72 47.7 46.9 1.79 276.0
2024-05-07 13:00 2.69 10.00 299 7.39 47.7 47.8 1.40 289.0
2024-05-07 12:30 2.69 11.76 300 6.91 47.8 47.3 0.60 287.0
2024-05-07 12:00 2.62 10.53 302 6.64 47.8 46.6 0.51 296.0
2024-05-07 11:30 2.95 10.53 301 6.08 48.0 47.7 0.17 4.0
2024-05-07 11:00 3.12 9.52 300 5.82 48.0 47.1 0.43 43.0
2024-05-07 10:30 3.15 9.09 301 5.79 48.0 47.8 0.72 36.0
2024-05-07 10:00 3.35 7.41 297 5.54 48.0 46.8 0.82 30.0
2024-05-07 09:30 3.54 7.41 296 5.86 47.8 45.9 0.86 45.0
2024-05-07 09:00 3.38 7.69 298 5.77 48.0 47.5 0.68 37.0
2024-05-07 08:30 3.35 8.70 298 5.59 48.0 47.8 0.70 36.0
2024-05-07 08:00 3.12 8.33 293 5.58 48.0 47.5 0.86 30.0
2024-05-07 07:30 2.69 8.33 290 4.94 47.8 47.8 0.80 14.0
2024-05-07 07:00 2.46 8.70 287 4.53 48.0 47.8 0.51 352.0
2024-05-07 06:30 2.17 8.70 295 4.31 48.0 47.8 0.68 249.0
2024-05-07 06:00 2.23 10.00 293 4.63 48.0 47.7 0.97 234.0
2024-05-07 05:30 2.49 9.52 287 5.20 48.2 47.8 1.13 234.0
2024-05-07 05:00 3.31 9.09 290 6.09 48.2 47.8 0.68 246.0
2024-05-07 04:30 3.31 9.09 291 5.90 48.4 47.3 0.84 258.0
2024-05-07 04:00 3.41 9.52 290 5.93 48.0 48.0 0.72 271.0
2024-05-07 03:30 3.12 9.52 293 5.44 48.2 47.3 0.91 289.0
2024-05-07 03:00 2.89 10.53 291 5.39 48.2 47.7 1.22 279.0
2024-05-07 02:30 2.92 10.53 286 5.55 48.2 0.70 275.0
2024-05-07 02:00 2.99 10.00 289 4.83 48.2 48.2 0.21 161.0
2024-05-07 01:30 2.82 10.53 291 4.55 48.0 0.45 107.0
2024-05-07 01:00 2.62 10.53 288 4.73 48.2 0.52 107.0
2024-05-07 00:30 2.53 9.09 293 4.70 48.0 47.3 0.89 110.0
2024-05-07 00:00 2.82 10.53 291 5.16 48.2 46.9 1.13 136.0
2024-05-06 23:30 2.85 8.70 289 5.91 48.2 46.6 1.67 130.0
2024-05-06 23:00 2.66 10.53 293 6.29 48.4 46.9 1.17 99.0
2024-05-06 22:30 2.46 10.00 288 4.54 48.0 46.0 1.56 107.0
2024-05-06 22:00 2.10 9.52 299 4.02 48.6 47.3 1.42 99.0
2024-05-06 21:30 1.97 4.76 305 3.19 48.6 1.24 112.0
2024-05-06 21:00 2.62 8.70 297 3.58 48.6 1.21 109.0
2024-05-06 20:30 3.22 5.71 299 4.22 48.4 48.0 1.22 128.0
2024-05-06 20:00 3.64 5.88 297 5.00 48.2 47.7 1.56 111.0
2024-05-06 19:30 3.22 5.88 292 4.89 47.8 46.9 1.75 96.0
2024-05-06 19:00 2.92 9.09 296 4.19 47.7 47.8 1.11 85.0
2024-05-06 18:30 3.48 7.41 287 4.76 47.7 47.5 0.62 94.0
2024-05-06 18:00 4.07 8.33 282 5.41 47.8 47.5 0.37 124.0
2024-05-06 17:30 3.74 8.00 280 5.38 47.7 48.0 0.37 198.0
2024-05-06 17:00 3.38 8.70 272 5.69 47.5 47.8 0.21 186.0
2024-05-06 16:30 2.53 8.70 273 6.04 47.5 47.5 1.01 243.0
2024-05-06 16:00 2.92 9.09 276 6.62 47.8 47.7 2.14 239.0
2024-05-06 15:30 2.62 9.09 274 6.33 47.5 47.1 1.67 230.0
2024-05-06 15:00 2.03 9.52 284 5.53 47.5 47.3 0.93 220.0
2024-05-06 14:30 2.36 10.00 293 5.47 47.7 47.3 1.56 252.0
2024-05-06 14:00 3.22 9.52 301 6.79 47.8 48.0 1.96 260.0
2024-05-06 13:30 2.82 9.52 293 5.87 47.7 47.5 1.61 267.0
2024-05-06 13:00 2.95 9.52 300 6.08 48.0 47.1 1.75 273.0
2024-05-06 12:30 2.95 9.52 294 6.08 48.0 47.5 0.72 295.0
2024-05-06 12:00 2.85 9.52 291 5.96 47.8 47.7 0.74 315.0
2024-05-06 11:30 3.48 9.52 295 6.44 48.0 47.3 0.45 314.0
2024-05-06 11:00 3.44 9.52 294 6.23 48.0 47.3 0.35 4.0
2024-05-06 10:30 2.89 9.52 292 6.19 48.0 0.41 31.0
2024-05-06 10:00 2.69 9.52 292 6.33 48.0 46.9 0.60 49.0
2024-05-06 09:30 2.76 8.70 295 6.45 48.0 0.76 61.0
2024-05-06 09:00 2.85 8.33 294 6.21 48.0 1.03 69.0
2024-05-06 08:30 3.02 9.09 300 6.22 48.0 1.24 71.0
2024-05-06 08:00 2.72 8.70 296 5.82 48.0 46.9 1.01 60.0
2024-05-06 07:30 2.72 8.00 286 5.45 48.0 47.8 0.89 64.0
2024-05-06 07:00 3.31 8.00 287 5.80 48.2 48.0 0.78 52.0
2024-05-06 06:30 3.64 8.33 290 5.88 48.2 47.8 0.78 24.0
2024-05-06 06:00 4.10 8.33 288 6.12 48.2 48.7 0.62 6.0
2024-05-06 05:30 4.27 9.09 292 5.98 48.2 48.7 0.45 279.0
2024-05-06 05:00 4.36 9.52 289 6.03 48.2 48.6 0.52 262.0
2024-05-06 04:30 3.71 9.52 287 5.17 48.2 48.7 0.84 235.0
2024-05-06 04:00 3.51 10.00 288 5.24 48.4 49.1 0.99 220.0
2024-05-06 03:30 3.51 10.00 285 4.97 48.2 49.3 0.87 222.0
2024-05-06 03:00 3.67 9.52 282 4.64 48.2 50.4 0.43 266.0
2024-05-06 02:30 3.84 10.00 289 4.65 48.2 49.8 0.62 297.0
2024-05-06 02:00 4.00 9.52 287 5.29 48.0 48.4 0.68 295.0
2024-05-06 01:30 4.17 10.00 289 5.21 48.0 49.8 1.15 270.0
2024-05-06 01:00 4.27 9.52 285 5.18 48.4 49.5 1.09 231.0
2024-05-06 00:30 4.07 9.52 285 4.71 48.2 48.4 0.12 232.0
2024-05-06 00:00 4.23 10.00 287 4.32 48.2 48.6 0.17 101.0
2024-05-05 23:30 3.97 9.52 288 4.53 48.2 48.9 0.51 95.0
2024-05-05 23:00 3.94 9.09 287 4.79 48.4 48.4 0.68 86.0
2024-05-05 22:30 4.36 9.09 290 4.78 48.2 48.9 0.70 96.0
2024-05-05 22:00 4.30 8.70 290 4.89 48.2 48.7 1.07 89.0
2024-05-05 21:30 3.67 8.33 291 4.34 48.4 49.5 0.27 98.0
2024-05-05 21:00 3.97 8.70 285 4.86 48.6 49.6 0.16 51.0
2024-05-05 20:30 3.41 8.33 287 4.42 48.2 49.8 0.54 137.0
2024-05-05 20:00 3.51 8.00 285 4.55 48.0 49.6 1.03 106.0
2024-05-05 19:30 3.61 8.33 288 5.02 48.0 50.2 1.19 111.0
2024-05-05 19:00 3.48 8.70 291 4.73 47.8 49.8 0.95 97.0
2024-05-05 18:30 3.58 8.70 290 4.77 48.0 50.2 0.72 150.0
2024-05-05 18:00 3.87 8.33 285 5.10 48.0 50.4 0.56 93.0
2024-05-05 17:30 4.10 8.70 284 4.90 48.0 50.2 0.41 103.0
2024-05-05 17:00 4.00 8.00 287 5.27 48.0 50.0 0.21 202.0
2024-05-05 16:30 3.97 9.09 281 5.80 48.0 49.8 0.86 255.0
2024-05-05 16:00 4.04 9.09 278 6.23 48.0 49.5 1.69 247.0
2024-05-05 15:30 3.54 10.00 288 6.38 47.7 49.1 1.46 240.0
2024-05-05 15:00 3.51 5.71 281 5.89 48.4 49.6 2.62 238.0
2024-05-05 14:30 3.64 10.00 281 5.94 48.4 49.6 2.39 242.0
2024-05-05 14:00 3.81 10.53 288 6.14 48.2 49.5 1.87 258.0
2024-05-05 13:30 3.81 11.11 303 5.39 48.2 49.6 1.61 272.0
2024-05-05 13:00 3.94 11.11 304 6.32 48.6 49.3 1.87 265.0
2024-05-05 12:30 3.44 11.11 296 6.15 48.2 49.3 1.54 286.0
2024-05-05 12:00 3.28 10.53 291 6.77 48.0 49.5 0.60 279.0
2024-05-05 11:30 2.89 11.11 291 5.47 48.2 49.1 0.66 232.0
2024-05-05 11:00 3.12 10.53 289 5.39 48.2 49.1 0.52 224.0
2024-05-05 10:30 3.28 8.33 295 5.45 48.2 49.5 0.54 132.0
2024-05-05 10:00 3.08 10.00 297 5.18 48.6 49.5 0.80 114.0
2024-05-05 09:30 3.05 9.52 292 5.61 48.6 49.6 1.24 124.0
2024-05-05 09:00 2.72 8.70 295 5.32 48.4 50.0 1.44 119.0
2024-05-05 08:30 3.25 8.00 292 5.39 48.2 50.2 1.46 105.0
2024-05-05 08:00 3.31 7.14 299 5.11 48.9 49.6 1.09 73.0
2024-05-05 07:30 3.41 8.00 299 5.54 48.9 53.6 1.21 80.0
2024-05-05 07:00 3.41 8.70 296 5.58 48.6 53.8 1.17 87.0
2024-05-05 06:30 3.41 8.00 305 5.49 48.2 53.1 1.24 86.0
2024-05-05 06:00 3.22 8.00 298 5.22 48.2 52.2 1.01 85.0
2024-05-05 05:30 3.44 8.00 290 5.73 48.0 51.3 0.64 81.0
2024-05-05 05:00 3.28 8.33 292 6.06 48.2 49.6 0.14 197.0
2024-05-05 04:30 3.97 7.69 286 6.80 48.2 0.51 276.0
2024-05-05 04:00 3.90 8.33 283 6.83 48.2 1.09 268.0
2024-05-05 03:30 4.33 8.70 280 7.22 48.9 1.61 247.0
2024-05-05 03:00 3.87 8.70 279 7.43 48.6 49.3 1.46 253.0
2024-05-05 02:30 3.02 8.70 275 7.12 48.0 49.6 0.74 235.0
2024-05-05 02:00 2.62 9.09 278 6.98 48.2 49.3 0.23 201.0
2024-05-05 01:30 2.92 9.09 284 7.62 48.2 49.1 0.23 161.0
2024-05-05 01:00 2.36 8.70 286 6.95 48.4 49.3 0.43 277.0
2024-05-05 00:30 2.95 9.09 290 7.59 48.2 49.1 0.91 326.0
2024-05-05 00:00 3.08 9.52 284 7.88 48.2 48.6 0.74 288.0
2024-05-04 23:30 3.08 9.09 283 7.80 48.4 48.7 0.60 286.0
2024-05-04 23:00 2.66 8.70 286 7.27 48.7 48.4 0.10 155.0
2024-05-04 22:30 2.23 9.09 298 6.07 48.7 48.6 0.23 295.0
2024-05-04 22:00 2.59 9.09 300 5.80 48.7 48.4 0.19 45.0
2024-05-04 21:30 2.69 8.70 304 5.97 48.6 48.7 0.08 237.0
2024-05-04 21:00 2.69 8.70 301 6.09 48.4 48.4 0.17 115.0
2024-05-04 20:30 2.43 8.33 308 5.93 48.6 48.6 0.47 131.0
2024-05-04 20:00 2.46 8.33 306 5.96 48.9 48.9 0.54 96.0
2024-05-04 19:30 1.84 7.69 310 5.23 48.9 49.1 0.64 103.0
2024-05-04 19:00 1.61 7.69 306 4.94 48.9 49.6 0.86 85.0
2024-05-04 18:30 1.48 8.00 297 4.75 48.6 49.5 1.05 82.0
2024-05-04 18:00 1.35 4.17 305 4.40 48.0 48.9 0.91 60.0
2024-05-04 17:30 1.28 4.17 296 4.38 48.0 48.7 0.76 45.0
2024-05-04 17:00 1.35 4.55 301 4.34 47.8 48.6 0.52 20.0
2024-05-04 16:30 1.41 4.76 289 4.40 47.8 48.2 0.47 296.0
2024-05-04 16:00 1.48 4.88 301 4.49 47.8 48.2 0.72 256.0
2024-05-04 15:30 1.54 5.26 281 4.58 48.6 48.4 1.67 238.0
2024-05-04 15:00 1.67 5.13 284 4.52 48.6 48.2 1.90 237.0
2024-05-04 14:30 1.64 4.76 293 4.44 48.0 48.2 1.65 237.0
2024-05-04 14:00 1.61 4.88 297 3.85 48.0 48.2 0.54 243.0
2024-05-04 13:30 1.97 4.65 299 3.79 48.2 48.2 0.91 270.0
2024-05-04 13:00 1.90 4.88 285 3.97 48.2 48.2 1.11 262.0
2024-05-04 12:30 1.57 4.35 288 3.77 48.4 48.4 1.77 275.0
2024-05-04 12:00 1.35 4.00 291 3.67
2024-05-04 11:30 1.08 3.51 283 3.46 48.6 48.2 1.85 264.0
2024-05-04 11:00 1.12 3.39 283 3.32 48.2 49.1 1.22 254.0
2024-05-04 10:30 0.95 2.35 265 2.81 48.2 50.2 0.33 182.0
2024-05-04 10:00 0.66 11.11 291 3.13 48.2 48.2 0.27 110.0
2024-05-04 09:30 0.72 3.23 303 3.31 48.2 48.4 0.52 54.0
2024-05-04 09:00 0.92 3.13 303 3.13 48.0 48.2 0.60 73.0
2024-05-04 08:30 1.08 3.28 303 3.12 48.2 48.4 1.15 106.0
2024-05-04 08:00 0.98 3.23 304 3.41 48.4 48.9 1.92 106.0
2024-05-04 07:30 0.82 3.45 291 3.25 48.4 49.1 2.02 97.0
2024-05-04 07:00 0.92 3.45 303 3.21 48.2 49.3 1.75 94.0
2024-05-04 06:30 1.28 3.23 294 2.95 48.6 49.3 1.50 100.0
2024-05-04 06:00 1.48 3.51 287 3.09 48.4 49.6 1.69 105.0
2024-05-04 05:30 1.51 3.45 289 3.00 48.6 49.5 1.52 100.0
2024-05-04 05:00 1.74 3.45 288 2.94 48.4 49.1 1.26 95.0
2024-05-04 04:30 2.10 4.00 286 3.04 48.2 49.5 0.78 83.0
2024-05-04 04:00 2.17 4.00 283 3.03 48.2 49.6 0.37 116.0
2024-05-04 03:30 2.20 4.08 282 3.29 48.2 49.8 0.54 265.0
2024-05-04 03:00 2.33 4.08 293 3.44 48.6 50.0 0.91 261.0
2024-05-04 02:30 1.84 3.57 282 3.38 48.6 50.2 1.40 261.0
2024-05-04 02:00 1.54 3.51 268 3.48 48.2 49.8 1.65 255.0
2024-05-04 01:30 1.51 3.39 276 3.58 48.0 50.7 1.83 256.0
2024-05-04 01:00 1.25 3.23 281 3.37 48.2 51.3 1.81 256.0
2024-05-04 00:30 1.21 3.08 292 3.06 48.4 50.7 1.09 248.0
2024-05-04 00:00 1.18 8.33 304 3.05 48.9 49.8 0.91 256.0
2024-05-03 23:30 1.02 8.33 299 3.24 48.6 49.3 1.17 272.0
2024-05-03 23:00 1.08 7.14 281 3.48 48.7 50.5 1.24 254.0
2024-05-03 22:30 1.05 6.90 296 3.83 49.5 51.6 1.13 266.0
2024-05-03 22:00 1.12 3.17 51 3.59 48.7 51.1 1.17 257.0
2024-05-03 21:30 0.98 8.70 298 3.82 50.2 50.9 0.74 234.0
2024-05-03 21:00 0.98 8.00 295 3.48 49.3 50.7 0.39 239.0
2024-05-03 20:30 1.05 3.39 45 3.30 49.6 50.2 0.37 210.0
2024-05-03 20:00 1.21 7.14 308 3.30 49.6 50.2 0.25 176.0
2024-05-03 19:30 1.12 6.25 300 3.37 48.7 50.5 0.43 121.0
2024-05-03 19:00 1.05 7.14 299 3.42 48.7 49.6 0.47 98.0
2024-05-03 18:30 0.95 6.67 297 3.52 48.7 49.1 0.43 67.0
2024-05-03 18:00 0.98 6.45 295 3.39 48.2 48.6 0.49 8.0
2024-05-03 17:30 1.02 7.14 299 3.72 48.6 48.4 0.70 335.0
2024-05-03 17:00 0.98 7.14 300 4.12 48.4 48.0 0.60 296.0
2024-05-03 16:30 0.95 6.45 292 4.51 48.4 47.8 1.30 270.0
2024-05-03 16:00 0.89 7.14 303 4.18 48.0 48.0 1.54 264.0
2024-05-03 15:30 0.75 7.14 303 4.30 48.2 48.0 2.06 240.0
2024-05-03 15:00 0.79 7.41 307 3.27 47.8 47.5 1.89 232.0
2024-05-03 14:30 0.59 7.69 288 3.48 48.0 48.0 1.50 232.0
2024-05-03 14:00 0.52 7.69 296 5.06 47.8 48.0 1.24 240.0
2024-05-03 13:30 0.46 8.00 302 4.84 48.2 47.7 1.15 250.0
2024-05-03 13:00 0.46 7.69 300 5.10 48.2 46.0 0.93 260.0
2024-05-03 12:30 0.49 8.00 304 5.77 48.2 46.2 0.91 276.0
2024-05-03 12:00 0.56 8.00 306 5.45 48.2 45.3 1.21 277.0
2024-05-03 11:30 0.52 8.33 311 5.62 48.4 45.0 1.83 257.0
2024-05-03 11:00 0.59 7.69 311 5.89 48.4 44.8 1.71 253.0
2024-05-03 10:30 0.59 7.69 309 5.36 48.2 48.2 1.48 245.0
2024-05-03 10:00 0.56 8.00 293 4.32 48.6 46.9 0.66 233.0
2024-05-03 09:30 0.52 7.41 294 3.89 48.6 46.0 0.60 188.0
2024-05-03 09:00 0.56 7.69 295 3.80 48.7 46.0 0.39 130.0
2024-05-03 08:30 0.56 6.90 299 3.81 48.7 46.8 0.74 110.0
2024-05-03 08:00 0.62 7.14 300 3.87 48.9 47.8 0.91 112.0
2024-05-03 07:30 0.66 7.14 293 3.57 48.9 50.2 1.50 107.0
2024-05-03 07:00 0.79 7.41 289 3.76 48.9 49.1 1.48 103.0
2024-05-03 06:30 0.72 6.90 288 4.07 48.7 49.1 2.14 98.0
2024-05-03 06:00 0.59 7.14 307 4.51 48.6 50.2 1.48 80.0
2024-05-03 05:30 0.62 7.14 293 4.47 49.1 49.5 1.36 74.0
2024-05-03 05:00 0.66 7.14 299 4.61 49.1 49.3 1.11 88.0
2024-05-03 04:30 0.79 7.14 293 2.98 48.9 50.9 0.74 105.0
2024-05-03 04:00 0.85 6.25 295 2.54 49.1 50.9 0.64 142.0
2024-05-03 03:30 0.89 1.90 257 2.26 48.6 51.1 1.01 140.0
2024-05-03 03:00 0.72 7.69 275 2.58 48.2 51.6 1.01 100.0
2024-05-03 02:30 0.72 8.00 281 2.63 48.0 51.1 0.33 103.0
2024-05-03 02:00 0.75 8.00 291 2.92 48.2 51.1 0.17 251.0
2024-05-03 01:30 0.69 7.69 286 3.68 48.0 50.9 0.35 258.0
2024-05-03 01:00 0.62 6.45 282 5.64 48.2 52.7 0.68 253.0
2024-05-03 00:30 0.69 6.67 274 6.45 48.2 50.2 1.54 253.0
2024-05-03 00:00 0.72 6.67 281 6.38 48.0 50.5 1.52 245.0
2024-05-02 23:30 0.66 6.90 270 5.54 48.7 50.5 0.52 246.0
2024-05-02 23:00 0.69 6.67 280 5.01 48.9 50.2 0.60 246.0
2024-05-02 22:30 0.82 6.67 288 5.79 49.3 49.6 0.84 274.0
2024-05-02 22:00 0.69 9.09 299 5.70 49.5 50.0 1.01 280.0
2024-05-02 21:30 0.66 8.70 295 4.70 49.6 50.0 1.01 297.0
2024-05-02 21:00 0.69 8.33 297 4.76 50.0 50.5 1.01 308.0
2024-05-02 20:30 0.66 8.70 299 4.13 50.0 50.7 1.15 287.0
2024-05-02 20:00 0.75 8.33 284 4.71 49.3 50.4 1.13 260.0
2024-05-02 19:30 0.75 5.41 281 4.74 49.3 50.0 1.15 258.0
2024-05-02 19:00 0.75 8.70 282 4.35 49.1 50.5 0.86 270.0
2024-05-02 18:30 0.75 8.70 288 4.04 48.9 50.5 0.66 271.0
2024-05-02 18:00 0.85 7.41 288 3.52 48.6 49.8 0.45 241.0
2024-05-02 17:30 0.85 8.33 286 3.16 48.6 49.8 0.31 230.0
2024-05-02 17:00 0.89 8.70 284 3.24 48.6 49.8 0.45 221.0
2024-05-02 16:30 0.72 8.70 286 3.49 48.4 50.2 0.33 243.0
2024-05-02 16:00 0.62 6.45 290 3.82 48.0 50.2 0.33 259.0
2024-05-02 15:30 0.69 8.70 285 3.83 48.0 49.1 0.72 251.0
2024-05-02 15:00 0.69 7.41 290 3.05 48.2 48.6 0.86 261.0
2024-05-02 14:30 0.72 7.69 287 2.88 48.0 47.8 1.11 236.0
2024-05-02 14:00 0.72 7.14 279 2.54 48.0 47.7 1.03 233.0
2024-05-02 13:30 0.66 7.69 292 2.90 48.0 46.0 1.42 236.0
2024-05-02 13:00 0.69 8.33 291 2.91 48.0 45.0 0.39 247.0
2024-05-02 12:30 0.72 8.70 294 4.61 48.0 42.8 0.35 274.0
2024-05-02 12:00 0.69 9.09 293 5.07 48.0 43.0 0.86 290.0
2024-05-02 11:30 0.52 8.70 285 4.60 48.2 42.4 0.78 294.0
2024-05-02 11:00 0.49 9.52 294 5.00 48.2 43.0 1.26 263.0
2024-05-02 10:30 0.62 9.09 279 5.91 48.4 43.0 0.39 232.0
2024-05-02 10:00 0.79 8.70 290 6.06 48.4 43.5 0.54 110.0
2024-05-02 09:30 0.79 9.52 288 5.70 48.2 43.9 0.64 126.0
2024-05-02 09:00 0.75 9.09 292 5.38 48.2 44.1 0.25 159.0
2024-05-02 08:30 0.89 8.70 291 5.21 48.4 44.6 0.66 106.0
2024-05-02 08:00 1.05 9.09 296 5.49 48.4 44.8 0.72 92.0
2024-05-02 07:30 1.21 8.00 297 5.31 48.4 45.0 0.91 86.0
2024-05-02 07:00 1.54 8.33 300 5.01 48.9 45.5 0.74 70.0
2024-05-02 06:30 1.71 8.70 301 4.32 49.1 46.6 1.11 81.0
2024-05-02 06:00 1.77 8.70 304 4.64 48.6 46.4 1.46 88.0
2024-05-02 05:30 1.77 8.70 299 4.62 48.6 47.1 1.81 94.0
2024-05-02 05:00 1.77 9.09 300 4.85 48.6 47.7 2.20 93.0
2024-05-02 04:30 1.54 8.70 295 5.31 48.4 48.0 2.31 90.0
2024-05-02 04:00 1.54 8.00 292 4.68 48.4 48.4 1.69 78.0
2024-05-02 03:30 1.64 8.33 297 4.30 48.0 48.2 1.36 76.0
2024-05-02 03:00 1.87 8.70 293 4.59 48.2 48.2 0.89 93.0
2024-05-02 02:30 1.80 8.70 292 4.43 48.6 48.6 0.95 142.0
2024-05-02 02:00 1.84 8.33 283 5.27 48.4 48.6 0.84 134.0
2024-05-02 01:30 1.67 9.09 285 5.97 48.2 48.9 0.33 124.0
2024-05-02 01:00 1.64 9.09 283 6.32 48.2 48.4 0.33 198.0
2024-05-02 00:30 1.71 9.52 284 6.85 48.0 48.4 0.41 220.0
2024-05-02 00:00 1.51 9.52 279 6.67 48.0 48.2 0.41 242.0
2024-05-01 23:30 1.57 10.00 287 6.41 48.0 48.4 0.58 212.0
2024-05-01 23:00 1.51 9.09 273 6.47 48.6 48.7 0.31 118.0
2024-05-01 22:30 1.54 9.09 272 7.08 48.6 48.9 0.31 260.0
2024-05-01 22:00 1.77 9.52 277 7.27 48.6 48.4 0.41 252.0
2024-05-01 21:30 1.84 9.52 281 6.93 48.6 48.4 0.60 244.0
2024-05-01 21:00 1.97 10.53 292 6.93 48.4 48.0 0.66 273.0
2024-05-01 20:30 2.17 9.09 290 6.48 49.1 1.11 278.0
2024-05-01 20:00 2.03 9.52 282 6.49 49.1 47.8 1.77 272.0
2024-05-01 19:30 2.20 8.70 287 6.62 48.6 47.7 1.81 267.0
2024-05-01 19:00 2.53 9.09 289 6.49 48.7 47.8 1.87 263.0
2024-05-01 18:30 2.46 7.69 292 6.37 48.6 47.7 1.69 258.0
2024-05-01 18:00 2.13 8.70 287 5.62 48.2 47.7 1.57 249.0
2024-05-01 17:30 2.20 8.70 291 5.64 48.2 47.3 1.40 248.0
2024-05-01 17:00 2.49 9.09 294 6.43 48.2 46.9 1.34 245.0
2024-05-01 16:30 2.40 8.70 294 6.20 48.0 46.9 1.11 243.0
2024-05-01 16:00 2.36 9.09 290 6.46 48.0 46.9 0.91 238.0
2024-05-01 15:30 2.26 9.09 293 5.77 47.8 46.8 0.87 239.0
2024-05-01 15:00 2.17 9.09 292 5.51 47.8 46.0 0.70 242.0
2024-05-01 14:30 1.97 9.09 290 5.20 47.8 45.3 0.78 252.0
2024-05-01 14:00 2.00 10.00 289 5.49 48.0 44.6 1.03 240.0
2024-05-01 13:30 2.17 10.00 292 5.91 48.0 44.1 1.52 237.0
2024-05-01 13:00 1.94 10.53 297 5.48 47.7 44.2 1.44 231.0
2024-05-01 12:30 2.10 10.53 293 5.13 48.0 44.8 0.33 244.0
2024-05-01 12:00 2.07 10.53 297 5.00 48.0 46.9 0.33 238.0
2024-05-01 11:30 1.90 10.00 298 4.93 48.2 45.9 0.33 291.0
2024-05-01 11:00 1.87 10.53 298 5.00 48.2 46.4 0.39 282.0
2024-05-01 10:30 1.90 10.53 298 5.41 48.6 46.0 0.87 268.0
2024-05-01 10:00 1.87 11.11 295 5.86 48.6 46.2 0.68 252.0
2024-05-01 09:30 1.57 11.11 296 5.42 48.6 45.0 0.49 260.0
2024-05-01 09:00 1.48 11.11 299 5.44 48.2 45.7 0.23 226.0
2024-05-01 08:30 1.57 11.11 298 5.33 48.2 45.1 0.23 147.0
2024-05-01 08:00 1.61 11.11 299 5.47 48.2 46.4 0.29 119.0
2024-05-01 07:30 1.71 11.11 300 5.71 48.6 46.2 0.33 100.0
2024-05-01 07:00 1.87 10.53 298 5.24 48.6 45.3 0.52 95.0
2024-05-01 06:30 1.87 11.11 293 4.58 48.7 47.5 0.82 91.0
2024-05-01 06:00 2.26 11.11 299 4.18 48.7 48.0 1.05 93.0
2024-05-01 05:30 2.99 10.53 300 4.65 48.6 46.9 0.95 89.0
2024-05-01 05:00 3.12 10.53 301 4.45 48.6 48.0 1.48 99.0
2024-05-01 04:30 2.85 10.53 300 3.94 48.4 48.2 1.77 96.0
2024-05-01 04:00 2.46 10.53 292 4.32 48.2 48.2 2.18 84.0
2024-05-01 03:30 2.13 10.53 311 4.67 48.4 48.4 1.36 88.0
2024-05-01 03:00 1.71 11.11 313 3.91 48.4 48.6 1.50 86.0
2024-05-01 02:30 1.71 10.53 298 3.35 48.2 48.7 0.99 103.0
2024-05-01 02:00 2.59 10.53 292 4.87 48.2 48.7 0.87 114.0
2024-05-01 01:30 2.85 10.53 292 5.04 48.2 48.6 0.41 98.0
2024-05-01 01:00 3.12 9.09 290 5.20 48.6 48.7 0.54 178.0
2024-05-01 00:30 3.18 8.70 290 6.69 48.6 48.6 0.82 148.0
2024-05-01 00:00 2.10 9.52 281 7.75 48.4 48.6 0.89 108.0